<?xml version="1.0" encoding="UTF-8" standalone="no" ?>
<gpx xmlns="http://www.topografix.com/GPX/1/1" xmlns:xsi="http://www.w3.org/2001/XMLSchema-instance" xsi:schemaLocation="http://www.topografix.com/GPX/1/1 http://www.topografix.com/GPX/1/1/gpx.xsd" version="1.1" creator="VisuGPX - https://www.visugpx.com">
  <metadata>
    <name>83-M-Cogolin           </name>
    <desc><![CDATA[83-M-Cogolin : autour du village]]></desc>
  </metadata>
  <trk>
    <name><![CDATA[2018-06-27-M-cogolin]]></name>
    <trkseg>
      <trkpt lat="43.24753" lon="6.53684">
        <ele>32.6</ele>
        <time>2018-06-27T07:03:28Z</time>
      </trkpt>
      <trkpt lat="43.24753" lon="6.53684">
        <ele>32.6</ele>
        <time>2018-06-27T07:03:29Z</time>
      </trkpt>
      <trkpt lat="43.24759" lon="6.53693">
        <ele>30.2</ele>
        <time>2018-06-27T07:05:57Z</time>
      </trkpt>
      <trkpt lat="43.24765" lon="6.53703">
        <ele>30.2</ele>
        <time>2018-06-27T07:06:18Z</time>
      </trkpt>
      <trkpt lat="43.2477" lon="6.53713">
        <ele>30</ele>
        <time>2018-06-27T07:06:52Z</time>
      </trkpt>
      <trkpt lat="43.24773" lon="6.53701">
        <ele>30.1</ele>
        <time>2018-06-27T07:09:25Z</time>
      </trkpt>
      <trkpt lat="43.24767" lon="6.53691">
        <ele>30.2</ele>
        <time>2018-06-27T07:09:38Z</time>
      </trkpt>
      <trkpt lat="43.24761" lon="6.53681">
        <ele>30.8</ele>
        <time>2018-06-27T07:09:52Z</time>
      </trkpt>
      <trkpt lat="43.24753" lon="6.53673">
        <ele>30.8</ele>
        <time>2018-06-27T07:10:05Z</time>
      </trkpt>
      <trkpt lat="43.24746" lon="6.53664">
        <ele>30.6</ele>
        <time>2018-06-27T07:10:13Z</time>
      </trkpt>
      <trkpt lat="43.24739" lon="6.53654">
        <ele>30.9</ele>
        <time>2018-06-27T07:10:22Z</time>
      </trkpt>
      <trkpt lat="43.24732" lon="6.53645">
        <ele>30.5</ele>
        <time>2018-06-27T07:10:30Z</time>
      </trkpt>
      <trkpt lat="43.24725" lon="6.53636">
        <ele>30.2</ele>
        <time>2018-06-27T07:10:39Z</time>
      </trkpt>
      <trkpt lat="43.24717" lon="6.53629">
        <ele>30.3</ele>
        <time>2018-06-27T07:10:49Z</time>
      </trkpt>
      <trkpt lat="43.24711" lon="6.53619">
        <ele>30.5</ele>
        <time>2018-06-27T07:10:57Z</time>
      </trkpt>
      <trkpt lat="43.24702" lon="6.53611">
        <ele>30.6</ele>
        <time>2018-06-27T07:11:06Z</time>
      </trkpt>
      <trkpt lat="43.24695" lon="6.53603">
        <ele>30.8</ele>
        <time>2018-06-27T07:11:13Z</time>
      </trkpt>
      <trkpt lat="43.24689" lon="6.53594">
        <ele>30.8</ele>
        <time>2018-06-27T07:11:20Z</time>
      </trkpt>
      <trkpt lat="43.24684" lon="6.53583">
        <ele>30.8</ele>
        <time>2018-06-27T07:11:28Z</time>
      </trkpt>
      <trkpt lat="43.24679" lon="6.53571">
        <ele>31</ele>
        <time>2018-06-27T07:11:37Z</time>
      </trkpt>
      <trkpt lat="43.24675" lon="6.53559">
        <ele>31.4</ele>
        <time>2018-06-27T07:11:46Z</time>
      </trkpt>
      <trkpt lat="43.24673" lon="6.53547">
        <ele>31.6</ele>
        <time>2018-06-27T07:11:54Z</time>
      </trkpt>
      <trkpt lat="43.24675" lon="6.53534">
        <ele>31.3</ele>
        <time>2018-06-27T07:12:03Z</time>
      </trkpt>
      <trkpt lat="43.24678" lon="6.53521">
        <ele>31</ele>
        <time>2018-06-27T07:12:13Z</time>
      </trkpt>
      <trkpt lat="43.24681" lon="6.53509">
        <ele>31.5</ele>
        <time>2018-06-27T07:12:22Z</time>
      </trkpt>
      <trkpt lat="43.24685" lon="6.53497">
        <ele>32</ele>
        <time>2018-06-27T07:12:30Z</time>
      </trkpt>
      <trkpt lat="43.2469" lon="6.53485">
        <ele>32.6</ele>
        <time>2018-06-27T07:12:38Z</time>
      </trkpt>
      <trkpt lat="43.24685" lon="6.53473">
        <ele>32.2</ele>
        <time>2018-06-27T07:12:46Z</time>
      </trkpt>
      <trkpt lat="43.24678" lon="6.53463">
        <ele>32.8</ele>
        <time>2018-06-27T07:13:00Z</time>
      </trkpt>
      <trkpt lat="43.24676" lon="6.53451">
        <ele>33.5</ele>
        <time>2018-06-27T07:13:06Z</time>
      </trkpt>
      <trkpt lat="43.24676" lon="6.53438">
        <ele>34.1</ele>
        <time>2018-06-27T07:13:13Z</time>
      </trkpt>
      <trkpt lat="43.24677" lon="6.53425">
        <ele>34.6</ele>
        <time>2018-06-27T07:13:20Z</time>
      </trkpt>
      <trkpt lat="43.24684" lon="6.53415">
        <ele>35.8</ele>
        <time>2018-06-27T07:13:30Z</time>
      </trkpt>
      <trkpt lat="43.24685" lon="6.53402">
        <ele>36.4</ele>
        <time>2018-06-27T07:13:40Z</time>
      </trkpt>
      <trkpt lat="43.24681" lon="6.5339">
        <ele>36.7</ele>
        <time>2018-06-27T07:13:49Z</time>
      </trkpt>
      <trkpt lat="43.24684" lon="6.53378">
        <ele>37.5</ele>
        <time>2018-06-27T07:13:58Z</time>
      </trkpt>
      <trkpt lat="43.2469" lon="6.53367">
        <ele>38.2</ele>
        <time>2018-06-27T07:14:09Z</time>
      </trkpt>
      <trkpt lat="43.24697" lon="6.53357">
        <ele>39.3</ele>
        <time>2018-06-27T07:14:19Z</time>
      </trkpt>
      <trkpt lat="43.24704" lon="6.5335">
        <ele>40.4</ele>
        <time>2018-06-27T07:14:28Z</time>
      </trkpt>
      <trkpt lat="43.24712" lon="6.53341">
        <ele>41.2</ele>
        <time>2018-06-27T07:14:38Z</time>
      </trkpt>
      <trkpt lat="43.2472" lon="6.53333">
        <ele>42.7</ele>
        <time>2018-06-27T07:14:49Z</time>
      </trkpt>
      <trkpt lat="43.24727" lon="6.53324">
        <ele>43.3</ele>
        <time>2018-06-27T07:15:00Z</time>
      </trkpt>
      <trkpt lat="43.2473" lon="6.53311">
        <ele>43.9</ele>
        <time>2018-06-27T07:15:10Z</time>
      </trkpt>
      <trkpt lat="43.24726" lon="6.53299">
        <ele>44.4</ele>
        <time>2018-06-27T07:15:19Z</time>
      </trkpt>
      <trkpt lat="43.24717" lon="6.53295">
        <ele>45.7</ele>
        <time>2018-06-27T07:15:29Z</time>
      </trkpt>
      <trkpt lat="43.24708" lon="6.53291">
        <ele>46.4</ele>
        <time>2018-06-27T07:15:38Z</time>
      </trkpt>
      <trkpt lat="43.24699" lon="6.53286">
        <ele>47</ele>
        <time>2018-06-27T07:15:47Z</time>
      </trkpt>
      <trkpt lat="43.2469" lon="6.53282">
        <ele>46.9</ele>
        <time>2018-06-27T07:15:56Z</time>
      </trkpt>
      <trkpt lat="43.2468" lon="6.53277">
        <ele>46</ele>
        <time>2018-06-27T07:16:06Z</time>
      </trkpt>
      <trkpt lat="43.24671" lon="6.53274">
        <ele>46.3</ele>
        <time>2018-06-27T07:16:13Z</time>
      </trkpt>
      <trkpt lat="43.24661" lon="6.53271">
        <ele>46.4</ele>
        <time>2018-06-27T07:16:21Z</time>
      </trkpt>
      <trkpt lat="43.24652" lon="6.53267">
        <ele>46.1</ele>
        <time>2018-06-27T07:16:29Z</time>
      </trkpt>
      <trkpt lat="43.24643" lon="6.53265">
        <ele>45.9</ele>
        <time>2018-06-27T07:16:37Z</time>
      </trkpt>
      <trkpt lat="43.24634" lon="6.5326">
        <ele>45.7</ele>
        <time>2018-06-27T07:16:45Z</time>
      </trkpt>
      <trkpt lat="43.24627" lon="6.53253">
        <ele>45.3</ele>
        <time>2018-06-27T07:16:54Z</time>
      </trkpt>
      <trkpt lat="43.24621" lon="6.53243">
        <ele>45.1</ele>
        <time>2018-06-27T07:17:01Z</time>
      </trkpt>
      <trkpt lat="43.24617" lon="6.53232">
        <ele>45.3</ele>
        <time>2018-06-27T07:17:09Z</time>
      </trkpt>
      <trkpt lat="43.24619" lon="6.5322">
        <ele>45.6</ele>
        <time>2018-06-27T07:17:18Z</time>
      </trkpt>
      <trkpt lat="43.24622" lon="6.53208">
        <ele>46</ele>
        <time>2018-06-27T07:17:28Z</time>
      </trkpt>
      <trkpt lat="43.24631" lon="6.53204">
        <ele>47.1</ele>
        <time>2018-06-27T07:17:38Z</time>
      </trkpt>
      <trkpt lat="43.2464" lon="6.53199">
        <ele>47.9</ele>
        <time>2018-06-27T07:17:47Z</time>
      </trkpt>
      <trkpt lat="43.24648" lon="6.53195">
        <ele>48.8</ele>
        <time>2018-06-27T07:17:56Z</time>
      </trkpt>
      <trkpt lat="43.24657" lon="6.53192">
        <ele>49.8</ele>
        <time>2018-06-27T07:18:06Z</time>
      </trkpt>
      <trkpt lat="43.24666" lon="6.53187">
        <ele>50</ele>
        <time>2018-06-27T07:18:16Z</time>
      </trkpt>
      <trkpt lat="43.24675" lon="6.53183">
        <ele>50.5</ele>
        <time>2018-06-27T07:18:25Z</time>
      </trkpt>
      <trkpt lat="43.24683" lon="6.53175">
        <ele>50.2</ele>
        <time>2018-06-27T07:18:35Z</time>
      </trkpt>
      <trkpt lat="43.24687" lon="6.53162">
        <ele>50.1</ele>
        <time>2018-06-27T07:18:44Z</time>
      </trkpt>
      <trkpt lat="43.24688" lon="6.53148">
        <ele>50</ele>
        <time>2018-06-27T07:18:53Z</time>
      </trkpt>
      <trkpt lat="43.24689" lon="6.53134">
        <ele>49.7</ele>
        <time>2018-06-27T07:19:01Z</time>
      </trkpt>
      <trkpt lat="43.24691" lon="6.53121">
        <ele>49.1</ele>
        <time>2018-06-27T07:19:09Z</time>
      </trkpt>
      <trkpt lat="43.24692" lon="6.53108">
        <ele>49.2</ele>
        <time>2018-06-27T07:19:19Z</time>
      </trkpt>
      <trkpt lat="43.24694" lon="6.53095">
        <ele>48.9</ele>
        <time>2018-06-27T07:19:28Z</time>
      </trkpt>
      <trkpt lat="43.24696" lon="6.53082">
        <ele>48.8</ele>
        <time>2018-06-27T07:19:36Z</time>
      </trkpt>
      <trkpt lat="43.24696" lon="6.53068">
        <ele>48.5</ele>
        <time>2018-06-27T07:19:45Z</time>
      </trkpt>
      <trkpt lat="43.24693" lon="6.53056">
        <ele>48.2</ele>
        <time>2018-06-27T07:19:53Z</time>
      </trkpt>
      <trkpt lat="43.24688" lon="6.53045">
        <ele>48.1</ele>
        <time>2018-06-27T07:20:00Z</time>
      </trkpt>
      <trkpt lat="43.24679" lon="6.53041">
        <ele>48</ele>
        <time>2018-06-27T07:20:09Z</time>
      </trkpt>
      <trkpt lat="43.24669" lon="6.53039">
        <ele>47.3</ele>
        <time>2018-06-27T07:20:18Z</time>
      </trkpt>
      <trkpt lat="43.24659" lon="6.53038">
        <ele>47.1</ele>
        <time>2018-06-27T07:20:26Z</time>
      </trkpt>
      <trkpt lat="43.2465" lon="6.53035">
        <ele>46.8</ele>
        <time>2018-06-27T07:20:34Z</time>
      </trkpt>
      <trkpt lat="43.2464" lon="6.5303">
        <ele>46.8</ele>
        <time>2018-06-27T07:20:43Z</time>
      </trkpt>
      <trkpt lat="43.24633" lon="6.53024">
        <ele>46.5</ele>
        <time>2018-06-27T07:20:50Z</time>
      </trkpt>
      <trkpt lat="43.24626" lon="6.53015">
        <ele>46.4</ele>
        <time>2018-06-27T07:20:58Z</time>
      </trkpt>
      <trkpt lat="43.2462" lon="6.53004">
        <ele>46.3</ele>
        <time>2018-06-27T07:21:05Z</time>
      </trkpt>
      <trkpt lat="43.24616" lon="6.52992">
        <ele>46.2</ele>
        <time>2018-06-27T07:21:11Z</time>
      </trkpt>
      <trkpt lat="43.24614" lon="6.52977">
        <ele>46.2</ele>
        <time>2018-06-27T07:21:17Z</time>
      </trkpt>
      <trkpt lat="43.2461" lon="6.52965">
        <ele>46.3</ele>
        <time>2018-06-27T07:21:23Z</time>
      </trkpt>
      <trkpt lat="43.24605" lon="6.52954">
        <ele>46.4</ele>
        <time>2018-06-27T07:21:30Z</time>
      </trkpt>
      <trkpt lat="43.24599" lon="6.52943">
        <ele>46.5</ele>
        <time>2018-06-27T07:21:37Z</time>
      </trkpt>
      <trkpt lat="43.24593" lon="6.52932">
        <ele>46.8</ele>
        <time>2018-06-27T07:21:45Z</time>
      </trkpt>
      <trkpt lat="43.24588" lon="6.52922">
        <ele>46.8</ele>
        <time>2018-06-27T07:21:52Z</time>
      </trkpt>
      <trkpt lat="43.24581" lon="6.52913">
        <ele>46.8</ele>
        <time>2018-06-27T07:22:00Z</time>
      </trkpt>
      <trkpt lat="43.24574" lon="6.52904">
        <ele>46.4</ele>
        <time>2018-06-27T07:22:08Z</time>
      </trkpt>
      <trkpt lat="43.24567" lon="6.52896">
        <ele>46.3</ele>
        <time>2018-06-27T07:22:16Z</time>
      </trkpt>
      <trkpt lat="43.2456" lon="6.52886">
        <ele>46.3</ele>
        <time>2018-06-27T07:22:25Z</time>
      </trkpt>
      <trkpt lat="43.24554" lon="6.52875">
        <ele>46.8</ele>
        <time>2018-06-27T07:22:34Z</time>
      </trkpt>
      <trkpt lat="43.24549" lon="6.52865">
        <ele>47</ele>
        <time>2018-06-27T07:22:42Z</time>
      </trkpt>
      <trkpt lat="43.24543" lon="6.52855">
        <ele>47.2</ele>
        <time>2018-06-27T07:22:51Z</time>
      </trkpt>
      <trkpt lat="43.24537" lon="6.52845">
        <ele>47.8</ele>
        <time>2018-06-27T07:23:00Z</time>
      </trkpt>
      <trkpt lat="43.24532" lon="6.52834">
        <ele>48.4</ele>
        <time>2018-06-27T07:23:08Z</time>
      </trkpt>
      <trkpt lat="43.24527" lon="6.52822">
        <ele>49.4</ele>
        <time>2018-06-27T07:23:16Z</time>
      </trkpt>
      <trkpt lat="43.24522" lon="6.52812">
        <ele>50.3</ele>
        <time>2018-06-27T07:23:25Z</time>
      </trkpt>
      <trkpt lat="43.24516" lon="6.528">
        <ele>50.9</ele>
        <time>2018-06-27T07:23:34Z</time>
      </trkpt>
      <trkpt lat="43.24512" lon="6.52788">
        <ele>51.8</ele>
        <time>2018-06-27T07:23:42Z</time>
      </trkpt>
      <trkpt lat="43.24508" lon="6.52777">
        <ele>52.7</ele>
        <time>2018-06-27T07:23:51Z</time>
      </trkpt>
      <trkpt lat="43.24504" lon="6.52766">
        <ele>53.6</ele>
        <time>2018-06-27T07:23:59Z</time>
      </trkpt>
      <trkpt lat="43.24497" lon="6.52756">
        <ele>54.5</ele>
        <time>2018-06-27T07:24:10Z</time>
      </trkpt>
      <trkpt lat="43.24493" lon="6.52746">
        <ele>55.1</ele>
        <time>2018-06-27T07:24:18Z</time>
      </trkpt>
      <trkpt lat="43.24487" lon="6.52734">
        <ele>55.8</ele>
        <time>2018-06-27T07:24:28Z</time>
      </trkpt>
      <trkpt lat="43.24484" lon="6.52722">
        <ele>57.4</ele>
        <time>2018-06-27T07:24:41Z</time>
      </trkpt>
      <trkpt lat="43.24479" lon="6.5271">
        <ele>58.6</ele>
        <time>2018-06-27T07:24:53Z</time>
      </trkpt>
      <trkpt lat="43.24476" lon="6.52698">
        <ele>59.2</ele>
        <time>2018-06-27T07:25:02Z</time>
      </trkpt>
      <trkpt lat="43.24473" lon="6.52685">
        <ele>60.1</ele>
        <time>2018-06-27T07:25:11Z</time>
      </trkpt>
      <trkpt lat="43.2447" lon="6.52673">
        <ele>61</ele>
        <time>2018-06-27T07:25:21Z</time>
      </trkpt>
      <trkpt lat="43.24468" lon="6.5266">
        <ele>62.2</ele>
        <time>2018-06-27T07:25:31Z</time>
      </trkpt>
      <trkpt lat="43.24462" lon="6.52649">
        <ele>63.2</ele>
        <time>2018-06-27T07:25:42Z</time>
      </trkpt>
      <trkpt lat="43.2446" lon="6.52636">
        <ele>63.5</ele>
        <time>2018-06-27T07:25:53Z</time>
      </trkpt>
      <trkpt lat="43.24457" lon="6.52624">
        <ele>64.1</ele>
        <time>2018-06-27T07:26:02Z</time>
      </trkpt>
      <trkpt lat="43.24454" lon="6.52611">
        <ele>64.9</ele>
        <time>2018-06-27T07:26:12Z</time>
      </trkpt>
      <trkpt lat="43.24449" lon="6.526">
        <ele>65.2</ele>
        <time>2018-06-27T07:26:20Z</time>
      </trkpt>
      <trkpt lat="43.24446" lon="6.52587">
        <ele>66</ele>
        <time>2018-06-27T07:26:30Z</time>
      </trkpt>
      <trkpt lat="43.24443" lon="6.52576">
        <ele>66.6</ele>
        <time>2018-06-27T07:26:37Z</time>
      </trkpt>
      <trkpt lat="43.24439" lon="6.52565">
        <ele>66.9</ele>
        <time>2018-06-27T07:26:45Z</time>
      </trkpt>
      <trkpt lat="43.24434" lon="6.52552">
        <ele>67.9</ele>
        <time>2018-06-27T07:26:55Z</time>
      </trkpt>
      <trkpt lat="43.24429" lon="6.52541">
        <ele>68.8</ele>
        <time>2018-06-27T07:27:03Z</time>
      </trkpt>
      <trkpt lat="43.24423" lon="6.52531">
        <ele>69.6</ele>
        <time>2018-06-27T07:27:17Z</time>
      </trkpt>
      <trkpt lat="43.24421" lon="6.52519">
        <ele>70</ele>
        <time>2018-06-27T07:27:25Z</time>
      </trkpt>
      <trkpt lat="43.24421" lon="6.52506">
        <ele>70.8</ele>
        <time>2018-06-27T07:27:35Z</time>
      </trkpt>
      <trkpt lat="43.24419" lon="6.52493">
        <ele>71.6</ele>
        <time>2018-06-27T07:27:44Z</time>
      </trkpt>
      <trkpt lat="43.24414" lon="6.52481">
        <ele>72.2</ele>
        <time>2018-06-27T07:27:53Z</time>
      </trkpt>
      <trkpt lat="43.24409" lon="6.5247">
        <ele>72.6</ele>
        <time>2018-06-27T07:28:01Z</time>
      </trkpt>
      <trkpt lat="43.24403" lon="6.52459">
        <ele>73.5</ele>
        <time>2018-06-27T07:28:10Z</time>
      </trkpt>
      <trkpt lat="43.24398" lon="6.52449">
        <ele>74.1</ele>
        <time>2018-06-27T07:28:18Z</time>
      </trkpt>
      <trkpt lat="43.24393" lon="6.52438">
        <ele>74.6</ele>
        <time>2018-06-27T07:28:26Z</time>
      </trkpt>
      <trkpt lat="43.2439" lon="6.52426">
        <ele>75.2</ele>
        <time>2018-06-27T07:28:34Z</time>
      </trkpt>
      <trkpt lat="43.24386" lon="6.52415">
        <ele>75.9</ele>
        <time>2018-06-27T07:28:43Z</time>
      </trkpt>
      <trkpt lat="43.24382" lon="6.52403">
        <ele>76.4</ele>
        <time>2018-06-27T07:28:54Z</time>
      </trkpt>
      <trkpt lat="43.24379" lon="6.52391">
        <ele>77.2</ele>
        <time>2018-06-27T07:29:06Z</time>
      </trkpt>
      <trkpt lat="43.24384" lon="6.5238">
        <ele>77.8</ele>
        <time>2018-06-27T07:29:20Z</time>
      </trkpt>
      <trkpt lat="43.24389" lon="6.52369">
        <ele>77.9</ele>
        <time>2018-06-27T07:29:30Z</time>
      </trkpt>
      <trkpt lat="43.24389" lon="6.52356">
        <ele>78.1</ele>
        <time>2018-06-27T07:29:38Z</time>
      </trkpt>
      <trkpt lat="43.24386" lon="6.52344">
        <ele>78.8</ele>
        <time>2018-06-27T07:29:48Z</time>
      </trkpt>
      <trkpt lat="43.24385" lon="6.52331">
        <ele>79.1</ele>
        <time>2018-06-27T07:29:56Z</time>
      </trkpt>
      <trkpt lat="43.24383" lon="6.52318">
        <ele>79.3</ele>
        <time>2018-06-27T07:30:05Z</time>
      </trkpt>
      <trkpt lat="43.2438" lon="6.52306">
        <ele>79.2</ele>
        <time>2018-06-27T07:30:12Z</time>
      </trkpt>
      <trkpt lat="43.24378" lon="6.52292">
        <ele>79.3</ele>
        <time>2018-06-27T07:30:19Z</time>
      </trkpt>
      <trkpt lat="43.24376" lon="6.5228">
        <ele>79.3</ele>
        <time>2018-06-27T07:30:27Z</time>
      </trkpt>
      <trkpt lat="43.24375" lon="6.52267">
        <ele>79.5</ele>
        <time>2018-06-27T07:30:35Z</time>
      </trkpt>
      <trkpt lat="43.24372" lon="6.52254">
        <ele>79.8</ele>
        <time>2018-06-27T07:30:45Z</time>
      </trkpt>
      <trkpt lat="43.24371" lon="6.52241">
        <ele>80.1</ele>
        <time>2018-06-27T07:30:54Z</time>
      </trkpt>
      <trkpt lat="43.24369" lon="6.52229">
        <ele>80.6</ele>
        <time>2018-06-27T07:31:04Z</time>
      </trkpt>
      <trkpt lat="43.24368" lon="6.52215">
        <ele>81.4</ele>
        <time>2018-06-27T07:31:12Z</time>
      </trkpt>
      <trkpt lat="43.24367" lon="6.52203">
        <ele>82.4</ele>
        <time>2018-06-27T07:31:22Z</time>
      </trkpt>
      <trkpt lat="43.24365" lon="6.52191">
        <ele>83.5</ele>
        <time>2018-06-27T07:31:33Z</time>
      </trkpt>
      <trkpt lat="43.24359" lon="6.52181">
        <ele>85.3</ele>
        <time>2018-06-27T07:31:48Z</time>
      </trkpt>
      <trkpt lat="43.24351" lon="6.52173">
        <ele>86.5</ele>
        <time>2018-06-27T07:31:58Z</time>
      </trkpt>
      <trkpt lat="43.24343" lon="6.52165">
        <ele>86.9</ele>
        <time>2018-06-27T07:32:08Z</time>
      </trkpt>
      <trkpt lat="43.24338" lon="6.52154">
        <ele>86.8</ele>
        <time>2018-06-27T07:32:17Z</time>
      </trkpt>
      <trkpt lat="43.24333" lon="6.52141">
        <ele>86.8</ele>
        <time>2018-06-27T07:32:26Z</time>
      </trkpt>
      <trkpt lat="43.24327" lon="6.52131">
        <ele>86.9</ele>
        <time>2018-06-27T07:32:34Z</time>
      </trkpt>
      <trkpt lat="43.24323" lon="6.52118">
        <ele>87.1</ele>
        <time>2018-06-27T07:32:43Z</time>
      </trkpt>
      <trkpt lat="43.24318" lon="6.52107">
        <ele>87.1</ele>
        <time>2018-06-27T07:32:52Z</time>
      </trkpt>
      <trkpt lat="43.24315" lon="6.52095">
        <ele>87.2</ele>
        <time>2018-06-27T07:33:01Z</time>
      </trkpt>
      <trkpt lat="43.2431" lon="6.52083">
        <ele>87.4</ele>
        <time>2018-06-27T07:33:09Z</time>
      </trkpt>
      <trkpt lat="43.24306" lon="6.52071">
        <ele>87.6</ele>
        <time>2018-06-27T07:33:18Z</time>
      </trkpt>
      <trkpt lat="43.24301" lon="6.5206">
        <ele>87.8</ele>
        <time>2018-06-27T07:33:25Z</time>
      </trkpt>
      <trkpt lat="43.24296" lon="6.5205">
        <ele>88</ele>
        <time>2018-06-27T07:33:33Z</time>
      </trkpt>
      <trkpt lat="43.2429" lon="6.52041">
        <ele>88.2</ele>
        <time>2018-06-27T07:33:41Z</time>
      </trkpt>
      <trkpt lat="43.24284" lon="6.5203">
        <ele>88.6</ele>
        <time>2018-06-27T07:33:49Z</time>
      </trkpt>
      <trkpt lat="43.24279" lon="6.52019">
        <ele>89.1</ele>
        <time>2018-06-27T07:33:58Z</time>
      </trkpt>
      <trkpt lat="43.24272" lon="6.52011">
        <ele>89.4</ele>
        <time>2018-06-27T07:34:07Z</time>
      </trkpt>
      <trkpt lat="43.24268" lon="6.52">
        <ele>90.6</ele>
        <time>2018-06-27T07:34:20Z</time>
      </trkpt>
      <trkpt lat="43.24259" lon="6.51993">
        <ele>91.4</ele>
        <time>2018-06-27T07:34:31Z</time>
      </trkpt>
      <trkpt lat="43.2425" lon="6.5199">
        <ele>92</ele>
        <time>2018-06-27T07:34:40Z</time>
      </trkpt>
      <trkpt lat="43.24241" lon="6.51984">
        <ele>92.5</ele>
        <time>2018-06-27T07:34:48Z</time>
      </trkpt>
      <trkpt lat="43.24232" lon="6.51979">
        <ele>92.8</ele>
        <time>2018-06-27T07:34:58Z</time>
      </trkpt>
      <trkpt lat="43.24223" lon="6.51976">
        <ele>92.9</ele>
        <time>2018-06-27T07:35:06Z</time>
      </trkpt>
      <trkpt lat="43.24214" lon="6.51971">
        <ele>93.1</ele>
        <time>2018-06-27T07:35:14Z</time>
      </trkpt>
      <trkpt lat="43.24205" lon="6.51967">
        <ele>93.3</ele>
        <time>2018-06-27T07:35:22Z</time>
      </trkpt>
      <trkpt lat="43.24196" lon="6.51963">
        <ele>93.6</ele>
        <time>2018-06-27T07:35:29Z</time>
      </trkpt>
      <trkpt lat="43.24186" lon="6.51959">
        <ele>94</ele>
        <time>2018-06-27T07:35:36Z</time>
      </trkpt>
      <trkpt lat="43.24177" lon="6.51956">
        <ele>94.8</ele>
        <time>2018-06-27T07:35:44Z</time>
      </trkpt>
      <trkpt lat="43.24167" lon="6.51954">
        <ele>95.3</ele>
        <time>2018-06-27T07:35:51Z</time>
      </trkpt>
      <trkpt lat="43.24158" lon="6.51949">
        <ele>95.9</ele>
        <time>2018-06-27T07:36:01Z</time>
      </trkpt>
      <trkpt lat="43.24151" lon="6.5194">
        <ele>97</ele>
        <time>2018-06-27T07:36:12Z</time>
      </trkpt>
      <trkpt lat="43.24149" lon="6.51928">
        <ele>98.9</ele>
        <time>2018-06-27T07:36:31Z</time>
      </trkpt>
      <trkpt lat="43.24154" lon="6.51915">
        <ele>100</ele>
        <time>2018-06-27T07:36:42Z</time>
      </trkpt>
      <trkpt lat="43.24157" lon="6.51904">
        <ele>100.5</ele>
        <time>2018-06-27T07:36:54Z</time>
      </trkpt>
      <trkpt lat="43.24158" lon="6.51891">
        <ele>100.5</ele>
        <time>2018-06-27T07:37:03Z</time>
      </trkpt>
      <trkpt lat="43.24159" lon="6.51878">
        <ele>100</ele>
        <time>2018-06-27T07:37:24Z</time>
      </trkpt>
      <trkpt lat="43.24165" lon="6.51869">
        <ele>99.8</ele>
        <time>2018-06-27T07:37:54Z</time>
      </trkpt>
      <trkpt lat="43.24169" lon="6.51857">
        <ele>99.7</ele>
        <time>2018-06-27T07:38:05Z</time>
      </trkpt>
      <trkpt lat="43.24172" lon="6.51844">
        <ele>99.9</ele>
        <time>2018-06-27T07:38:14Z</time>
      </trkpt>
      <trkpt lat="43.24177" lon="6.51833">
        <ele>99.3</ele>
        <time>2018-06-27T07:38:28Z</time>
      </trkpt>
      <trkpt lat="43.2418" lon="6.51821">
        <ele>98.9</ele>
        <time>2018-06-27T07:38:39Z</time>
      </trkpt>
      <trkpt lat="43.2418" lon="6.51808">
        <ele>98.7</ele>
        <time>2018-06-27T07:39:02Z</time>
      </trkpt>
      <trkpt lat="43.2418" lon="6.51796">
        <ele>98.6</ele>
        <time>2018-06-27T07:39:13Z</time>
      </trkpt>
      <trkpt lat="43.24181" lon="6.51782">
        <ele>98.5</ele>
        <time>2018-06-27T07:39:23Z</time>
      </trkpt>
      <trkpt lat="43.24177" lon="6.5177">
        <ele>98.5</ele>
        <time>2018-06-27T07:39:32Z</time>
      </trkpt>
      <trkpt lat="43.24172" lon="6.51759">
        <ele>98.6</ele>
        <time>2018-06-27T07:39:42Z</time>
      </trkpt>
      <trkpt lat="43.2417" lon="6.51747">
        <ele>99.4</ele>
        <time>2018-06-27T07:39:56Z</time>
      </trkpt>
      <trkpt lat="43.24171" lon="6.51734">
        <ele>100.4</ele>
        <time>2018-06-27T07:40:09Z</time>
      </trkpt>
      <trkpt lat="43.2417" lon="6.51721">
        <ele>101.7</ele>
        <time>2018-06-27T07:40:20Z</time>
      </trkpt>
      <trkpt lat="43.24168" lon="6.51709">
        <ele>102.8</ele>
        <time>2018-06-27T07:40:31Z</time>
      </trkpt>
      <trkpt lat="43.24164" lon="6.51697">
        <ele>103.4</ele>
        <time>2018-06-27T07:40:40Z</time>
      </trkpt>
      <trkpt lat="43.24158" lon="6.51686">
        <ele>103.8</ele>
        <time>2018-06-27T07:40:49Z</time>
      </trkpt>
      <trkpt lat="43.24152" lon="6.51676">
        <ele>104.2</ele>
        <time>2018-06-27T07:40:58Z</time>
      </trkpt>
      <trkpt lat="43.24146" lon="6.51666">
        <ele>105.3</ele>
        <time>2018-06-27T07:41:08Z</time>
      </trkpt>
      <trkpt lat="43.2414" lon="6.51657">
        <ele>106.1</ele>
        <time>2018-06-27T07:41:20Z</time>
      </trkpt>
      <trkpt lat="43.24135" lon="6.51645">
        <ele>106.5</ele>
        <time>2018-06-27T07:41:31Z</time>
      </trkpt>
      <trkpt lat="43.24131" lon="6.51633">
        <ele>107.4</ele>
        <time>2018-06-27T07:41:42Z</time>
      </trkpt>
      <trkpt lat="43.24125" lon="6.51623">
        <ele>107.9</ele>
        <time>2018-06-27T07:41:52Z</time>
      </trkpt>
      <trkpt lat="43.24117" lon="6.51616">
        <ele>108.3</ele>
        <time>2018-06-27T07:42:03Z</time>
      </trkpt>
      <trkpt lat="43.24109" lon="6.51609">
        <ele>109.7</ele>
        <time>2018-06-27T07:42:15Z</time>
      </trkpt>
      <trkpt lat="43.241" lon="6.51604">
        <ele>110.6</ele>
        <time>2018-06-27T07:42:26Z</time>
      </trkpt>
      <trkpt lat="43.2409" lon="6.51601">
        <ele>111.4</ele>
        <time>2018-06-27T07:42:37Z</time>
      </trkpt>
      <trkpt lat="43.24081" lon="6.51599">
        <ele>112</ele>
        <time>2018-06-27T07:42:47Z</time>
      </trkpt>
      <trkpt lat="43.24072" lon="6.51598">
        <ele>112.7</ele>
        <time>2018-06-27T07:42:57Z</time>
      </trkpt>
      <trkpt lat="43.24063" lon="6.51595">
        <ele>113.7</ele>
        <time>2018-06-27T07:43:05Z</time>
      </trkpt>
      <trkpt lat="43.24054" lon="6.5159">
        <ele>114.8</ele>
        <time>2018-06-27T07:43:17Z</time>
      </trkpt>
      <trkpt lat="43.24046" lon="6.51585">
        <ele>115.2</ele>
        <time>2018-06-27T07:43:24Z</time>
      </trkpt>
      <trkpt lat="43.24037" lon="6.51582">
        <ele>115.9</ele>
        <time>2018-06-27T07:43:32Z</time>
      </trkpt>
      <trkpt lat="43.2403" lon="6.51574">
        <ele>116.6</ele>
        <time>2018-06-27T07:43:46Z</time>
      </trkpt>
      <trkpt lat="43.24021" lon="6.51572">
        <ele>116.6</ele>
        <time>2018-06-27T07:44:17Z</time>
      </trkpt>
      <trkpt lat="43.24021" lon="6.51559">
        <ele>119.5</ele>
        <time>2018-06-27T07:48:44Z</time>
      </trkpt>
      <trkpt lat="43.24023" lon="6.51547">
        <ele>121.4</ele>
        <time>2018-06-27T07:48:58Z</time>
      </trkpt>
      <trkpt lat="43.24023" lon="6.51534">
        <ele>122.6</ele>
        <time>2018-06-27T07:49:08Z</time>
      </trkpt>
      <trkpt lat="43.24028" lon="6.51523">
        <ele>123.9</ele>
        <time>2018-06-27T07:49:22Z</time>
      </trkpt>
      <trkpt lat="43.24031" lon="6.5151">
        <ele>125.4</ele>
        <time>2018-06-27T07:49:36Z</time>
      </trkpt>
      <trkpt lat="43.24034" lon="6.51497">
        <ele>126.3</ele>
        <time>2018-06-27T07:49:48Z</time>
      </trkpt>
      <trkpt lat="43.24038" lon="6.51486">
        <ele>127</ele>
        <time>2018-06-27T07:49:57Z</time>
      </trkpt>
      <trkpt lat="43.24043" lon="6.51474">
        <ele>127.8</ele>
        <time>2018-06-27T07:50:06Z</time>
      </trkpt>
      <trkpt lat="43.2405" lon="6.51465">
        <ele>128.8</ele>
        <time>2018-06-27T07:50:17Z</time>
      </trkpt>
      <trkpt lat="43.24056" lon="6.51455">
        <ele>129.8</ele>
        <time>2018-06-27T07:50:26Z</time>
      </trkpt>
      <trkpt lat="43.24064" lon="6.51447">
        <ele>131.1</ele>
        <time>2018-06-27T07:50:39Z</time>
      </trkpt>
      <trkpt lat="43.24072" lon="6.51442">
        <ele>132.2</ele>
        <time>2018-06-27T07:50:49Z</time>
      </trkpt>
      <trkpt lat="43.24078" lon="6.51433">
        <ele>133.1</ele>
        <time>2018-06-27T07:50:59Z</time>
      </trkpt>
      <trkpt lat="43.24085" lon="6.51425">
        <ele>133.9</ele>
        <time>2018-06-27T07:51:08Z</time>
      </trkpt>
      <trkpt lat="43.24092" lon="6.51417">
        <ele>134.3</ele>
        <time>2018-06-27T07:51:17Z</time>
      </trkpt>
      <trkpt lat="43.241" lon="6.5141">
        <ele>134.9</ele>
        <time>2018-06-27T07:51:27Z</time>
      </trkpt>
      <trkpt lat="43.24103" lon="6.51398">
        <ele>135.4</ele>
        <time>2018-06-27T07:51:38Z</time>
      </trkpt>
      <trkpt lat="43.24099" lon="6.51386">
        <ele>133.8</ele>
        <time>2018-06-27T07:51:52Z</time>
      </trkpt>
      <trkpt lat="43.24099" lon="6.51373">
        <ele>133.1</ele>
        <time>2018-06-27T07:52:00Z</time>
      </trkpt>
      <trkpt lat="43.24097" lon="6.51361">
        <ele>133.2</ele>
        <time>2018-06-27T07:52:08Z</time>
      </trkpt>
      <trkpt lat="43.24095" lon="6.51348">
        <ele>133</ele>
        <time>2018-06-27T07:52:15Z</time>
      </trkpt>
      <trkpt lat="43.24092" lon="6.51336">
        <ele>133.1</ele>
        <time>2018-06-27T07:52:22Z</time>
      </trkpt>
      <trkpt lat="43.24088" lon="6.51324">
        <ele>133.3</ele>
        <time>2018-06-27T07:52:29Z</time>
      </trkpt>
      <trkpt lat="43.24085" lon="6.5131">
        <ele>133.5</ele>
        <time>2018-06-27T07:52:38Z</time>
      </trkpt>
      <trkpt lat="43.24082" lon="6.51298">
        <ele>133.8</ele>
        <time>2018-06-27T07:52:47Z</time>
      </trkpt>
      <trkpt lat="43.24079" lon="6.51286">
        <ele>134.5</ele>
        <time>2018-06-27T07:52:56Z</time>
      </trkpt>
      <trkpt lat="43.24077" lon="6.51273">
        <ele>134.8</ele>
        <time>2018-06-27T07:53:04Z</time>
      </trkpt>
      <trkpt lat="43.24075" lon="6.51262">
        <ele>136</ele>
        <time>2018-06-27T07:53:14Z</time>
      </trkpt>
      <trkpt lat="43.24072" lon="6.5125">
        <ele>136.8</ele>
        <time>2018-06-27T07:53:23Z</time>
      </trkpt>
      <trkpt lat="43.24067" lon="6.51238">
        <ele>137.4</ele>
        <time>2018-06-27T07:53:33Z</time>
      </trkpt>
      <trkpt lat="43.24061" lon="6.51227">
        <ele>138.1</ele>
        <time>2018-06-27T07:53:41Z</time>
      </trkpt>
      <trkpt lat="43.24056" lon="6.51215">
        <ele>138.7</ele>
        <time>2018-06-27T07:53:49Z</time>
      </trkpt>
      <trkpt lat="43.24052" lon="6.51204">
        <ele>139.5</ele>
        <time>2018-06-27T07:54:00Z</time>
      </trkpt>
      <trkpt lat="43.24056" lon="6.51192">
        <ele>140.9</ele>
        <time>2018-06-27T07:54:32Z</time>
      </trkpt>
      <trkpt lat="43.24061" lon="6.5118">
        <ele>141</ele>
        <time>2018-06-27T07:54:43Z</time>
      </trkpt>
      <trkpt lat="43.24062" lon="6.51167">
        <ele>141.6</ele>
        <time>2018-06-27T07:55:01Z</time>
      </trkpt>
      <trkpt lat="43.24061" lon="6.51154">
        <ele>142.5</ele>
        <time>2018-06-27T07:55:18Z</time>
      </trkpt>
      <trkpt lat="43.24061" lon="6.51142">
        <ele>144.4</ele>
        <time>2018-06-27T07:55:40Z</time>
      </trkpt>
      <trkpt lat="43.24056" lon="6.51131">
        <ele>146.5</ele>
        <time>2018-06-27T07:55:59Z</time>
      </trkpt>
      <trkpt lat="43.2405" lon="6.51121">
        <ele>148.1</ele>
        <time>2018-06-27T07:56:16Z</time>
      </trkpt>
      <trkpt lat="43.24046" lon="6.5111">
        <ele>149.4</ele>
        <time>2018-06-27T07:56:35Z</time>
      </trkpt>
      <trkpt lat="43.24041" lon="6.51099">
        <ele>151.4</ele>
        <time>2018-06-27T07:56:53Z</time>
      </trkpt>
      <trkpt lat="43.24037" lon="6.51088">
        <ele>154</ele>
        <time>2018-06-27T07:57:11Z</time>
      </trkpt>
      <trkpt lat="43.24032" lon="6.51077">
        <ele>157.7</ele>
        <time>2018-06-27T07:57:33Z</time>
      </trkpt>
      <trkpt lat="43.24028" lon="6.51066">
        <ele>160.6</ele>
        <time>2018-06-27T07:57:54Z</time>
      </trkpt>
      <trkpt lat="43.24022" lon="6.51056">
        <ele>165</ele>
        <time>2018-06-27T07:58:25Z</time>
      </trkpt>
      <trkpt lat="43.24014" lon="6.5105">
        <ele>167.6</ele>
        <time>2018-06-27T07:58:48Z</time>
      </trkpt>
      <trkpt lat="43.24008" lon="6.51041">
        <ele>170.4</ele>
        <time>2018-06-27T07:59:07Z</time>
      </trkpt>
      <trkpt lat="43.24002" lon="6.51032">
        <ele>173.9</ele>
        <time>2018-06-27T07:59:33Z</time>
      </trkpt>
      <trkpt lat="43.23993" lon="6.51025">
        <ele>176</ele>
        <time>2018-06-27T07:59:51Z</time>
      </trkpt>
      <trkpt lat="43.23987" lon="6.51016">
        <ele>178</ele>
        <time>2018-06-27T08:00:11Z</time>
      </trkpt>
      <trkpt lat="43.2398" lon="6.51007">
        <ele>179.9</ele>
        <time>2018-06-27T08:00:28Z</time>
      </trkpt>
      <trkpt lat="43.23975" lon="6.50997">
        <ele>182</ele>
        <time>2018-06-27T08:00:54Z</time>
      </trkpt>
      <trkpt lat="43.23969" lon="6.50988">
        <ele>182.4</ele>
        <time>2018-06-27T08:01:08Z</time>
      </trkpt>
      <trkpt lat="43.23962" lon="6.50979">
        <ele>182.7</ele>
        <time>2018-06-27T08:01:26Z</time>
      </trkpt>
      <trkpt lat="43.23955" lon="6.5097">
        <ele>183.4</ele>
        <time>2018-06-27T08:01:50Z</time>
      </trkpt>
      <trkpt lat="43.2395" lon="6.5096">
        <ele>184</ele>
        <time>2018-06-27T08:02:05Z</time>
      </trkpt>
      <trkpt lat="43.23944" lon="6.5095">
        <ele>184.9</ele>
        <time>2018-06-27T08:02:23Z</time>
      </trkpt>
      <trkpt lat="43.23939" lon="6.50939">
        <ele>185.1</ele>
        <time>2018-06-27T08:02:36Z</time>
      </trkpt>
      <trkpt lat="43.23936" lon="6.50927">
        <ele>186</ele>
        <time>2018-06-27T08:03:05Z</time>
      </trkpt>
      <trkpt lat="43.23935" lon="6.50914">
        <ele>186.3</ele>
        <time>2018-06-27T08:03:25Z</time>
      </trkpt>
      <trkpt lat="43.23935" lon="6.50901">
        <ele>185.8</ele>
        <time>2018-06-27T08:03:55Z</time>
      </trkpt>
      <trkpt lat="43.23933" lon="6.50889">
        <ele>186.3</ele>
        <time>2018-06-27T08:04:15Z</time>
      </trkpt>
      <trkpt lat="43.23933" lon="6.50876">
        <ele>186.8</ele>
        <time>2018-06-27T08:04:34Z</time>
      </trkpt>
      <trkpt lat="43.23932" lon="6.50864">
        <ele>187.4</ele>
        <time>2018-06-27T08:04:50Z</time>
      </trkpt>
      <trkpt lat="43.2393" lon="6.50851">
        <ele>187.9</ele>
        <time>2018-06-27T08:05:02Z</time>
      </trkpt>
      <trkpt lat="43.23929" lon="6.50839">
        <ele>188.3</ele>
        <time>2018-06-27T08:05:14Z</time>
      </trkpt>
      <trkpt lat="43.23927" lon="6.50826">
        <ele>188.2</ele>
        <time>2018-06-27T08:05:28Z</time>
      </trkpt>
      <trkpt lat="43.23925" lon="6.50813">
        <ele>188.5</ele>
        <time>2018-06-27T08:05:41Z</time>
      </trkpt>
      <trkpt lat="43.23923" lon="6.50801">
        <ele>188.6</ele>
        <time>2018-06-27T08:05:50Z</time>
      </trkpt>
      <trkpt lat="43.23921" lon="6.50788">
        <ele>189</ele>
        <time>2018-06-27T08:06:03Z</time>
      </trkpt>
      <trkpt lat="43.23919" lon="6.50776">
        <ele>189.6</ele>
        <time>2018-06-27T08:06:25Z</time>
      </trkpt>
      <trkpt lat="43.23913" lon="6.50767">
        <ele>191</ele>
        <time>2018-06-27T08:06:44Z</time>
      </trkpt>
      <trkpt lat="43.23908" lon="6.50756">
        <ele>192.1</ele>
        <time>2018-06-27T08:06:55Z</time>
      </trkpt>
      <trkpt lat="43.23904" lon="6.50744">
        <ele>193.1</ele>
        <time>2018-06-27T08:07:10Z</time>
      </trkpt>
      <trkpt lat="43.23901" lon="6.50732">
        <ele>193.8</ele>
        <time>2018-06-27T08:07:19Z</time>
      </trkpt>
      <trkpt lat="43.23899" lon="6.50719">
        <ele>194.3</ele>
        <time>2018-06-27T08:07:29Z</time>
      </trkpt>
      <trkpt lat="43.23898" lon="6.50706">
        <ele>195.3</ele>
        <time>2018-06-27T08:07:39Z</time>
      </trkpt>
      <trkpt lat="43.23894" lon="6.50695">
        <ele>195.7</ele>
        <time>2018-06-27T08:07:51Z</time>
      </trkpt>
      <trkpt lat="43.23892" lon="6.50682">
        <ele>195.4</ele>
        <time>2018-06-27T08:08:00Z</time>
      </trkpt>
      <trkpt lat="43.23889" lon="6.5067">
        <ele>195.5</ele>
        <time>2018-06-27T08:08:11Z</time>
      </trkpt>
      <trkpt lat="43.23883" lon="6.50659">
        <ele>195.1</ele>
        <time>2018-06-27T08:08:20Z</time>
      </trkpt>
      <trkpt lat="43.23878" lon="6.50649">
        <ele>194.2</ele>
        <time>2018-06-27T08:08:32Z</time>
      </trkpt>
      <trkpt lat="43.2387" lon="6.50641">
        <ele>194</ele>
        <time>2018-06-27T08:08:43Z</time>
      </trkpt>
      <trkpt lat="43.23862" lon="6.50635">
        <ele>193.1</ele>
        <time>2018-06-27T08:08:56Z</time>
      </trkpt>
      <trkpt lat="43.23853" lon="6.50631">
        <ele>192.1</ele>
        <time>2018-06-27T08:09:05Z</time>
      </trkpt>
      <trkpt lat="43.23844" lon="6.50628">
        <ele>191.5</ele>
        <time>2018-06-27T08:09:14Z</time>
      </trkpt>
      <trkpt lat="43.23835" lon="6.50625">
        <ele>190.7</ele>
        <time>2018-06-27T08:09:31Z</time>
      </trkpt>
      <trkpt lat="43.23826" lon="6.5062">
        <ele>188.6</ele>
        <time>2018-06-27T08:10:41Z</time>
      </trkpt>
      <trkpt lat="43.23818" lon="6.50615">
        <ele>185.8</ele>
        <time>2018-06-27T08:11:15Z</time>
      </trkpt>
      <trkpt lat="43.2381" lon="6.50607">
        <ele>184</ele>
        <time>2018-06-27T08:11:36Z</time>
      </trkpt>
      <trkpt lat="43.23803" lon="6.506">
        <ele>181.7</ele>
        <time>2018-06-27T08:11:55Z</time>
      </trkpt>
      <trkpt lat="43.23796" lon="6.50591">
        <ele>180.5</ele>
        <time>2018-06-27T08:12:08Z</time>
      </trkpt>
      <trkpt lat="43.23788" lon="6.50585">
        <ele>179.4</ele>
        <time>2018-06-27T08:12:17Z</time>
      </trkpt>
      <trkpt lat="43.23781" lon="6.50578">
        <ele>178.5</ele>
        <time>2018-06-27T08:12:25Z</time>
      </trkpt>
      <trkpt lat="43.23774" lon="6.50568">
        <ele>177.8</ele>
        <time>2018-06-27T08:12:34Z</time>
      </trkpt>
      <trkpt lat="43.23766" lon="6.50559">
        <ele>177.3</ele>
        <time>2018-06-27T08:12:43Z</time>
      </trkpt>
      <trkpt lat="43.2376" lon="6.5055">
        <ele>177.5</ele>
        <time>2018-06-27T08:12:53Z</time>
      </trkpt>
      <trkpt lat="43.23753" lon="6.50541">
        <ele>177.9</ele>
        <time>2018-06-27T08:13:04Z</time>
      </trkpt>
      <trkpt lat="43.23749" lon="6.50529">
        <ele>178.9</ele>
        <time>2018-06-27T08:13:19Z</time>
      </trkpt>
      <trkpt lat="43.23744" lon="6.50518">
        <ele>180.5</ele>
        <time>2018-06-27T08:13:32Z</time>
      </trkpt>
      <trkpt lat="43.23738" lon="6.50509">
        <ele>183.1</ele>
        <time>2018-06-27T08:13:49Z</time>
      </trkpt>
      <trkpt lat="43.23731" lon="6.50501">
        <ele>185.8</ele>
        <time>2018-06-27T08:15:21Z</time>
      </trkpt>
      <trkpt lat="43.23725" lon="6.5049">
        <ele>184.9</ele>
        <time>2018-06-27T08:16:25Z</time>
      </trkpt>
      <trkpt lat="43.23719" lon="6.5048">
        <ele>184.8</ele>
        <time>2018-06-27T08:16:36Z</time>
      </trkpt>
      <trkpt lat="43.23713" lon="6.50471">
        <ele>185.1</ele>
        <time>2018-06-27T08:16:46Z</time>
      </trkpt>
      <trkpt lat="43.2371" lon="6.50459">
        <ele>185.4</ele>
        <time>2018-06-27T08:16:57Z</time>
      </trkpt>
      <trkpt lat="43.23707" lon="6.50447">
        <ele>186</ele>
        <time>2018-06-27T08:17:28Z</time>
      </trkpt>
      <trkpt lat="43.23704" lon="6.50436">
        <ele>186</ele>
        <time>2018-06-27T08:17:42Z</time>
      </trkpt>
      <trkpt lat="43.23697" lon="6.50428">
        <ele>186.3</ele>
        <time>2018-06-27T08:17:55Z</time>
      </trkpt>
      <trkpt lat="43.23689" lon="6.5042">
        <ele>186.9</ele>
        <time>2018-06-27T08:18:05Z</time>
      </trkpt>
      <trkpt lat="43.2368" lon="6.50414">
        <ele>187.6</ele>
        <time>2018-06-27T08:18:14Z</time>
      </trkpt>
      <trkpt lat="43.23671" lon="6.50409">
        <ele>187.9</ele>
        <time>2018-06-27T08:18:23Z</time>
      </trkpt>
      <trkpt lat="43.23663" lon="6.50401">
        <ele>187.6</ele>
        <time>2018-06-27T08:18:34Z</time>
      </trkpt>
      <trkpt lat="43.23654" lon="6.50397">
        <ele>187.8</ele>
        <time>2018-06-27T08:18:42Z</time>
      </trkpt>
      <trkpt lat="43.23645" lon="6.50394">
        <ele>188</ele>
        <time>2018-06-27T08:18:51Z</time>
      </trkpt>
      <trkpt lat="43.23636" lon="6.50387">
        <ele>188.7</ele>
        <time>2018-06-27T08:19:00Z</time>
      </trkpt>
      <trkpt lat="43.23628" lon="6.50381">
        <ele>188.4</ele>
        <time>2018-06-27T08:19:12Z</time>
      </trkpt>
      <trkpt lat="43.2362" lon="6.50374">
        <ele>187.7</ele>
        <time>2018-06-27T08:19:36Z</time>
      </trkpt>
      <trkpt lat="43.23616" lon="6.50363">
        <ele>186.2</ele>
        <time>2018-06-27T08:20:00Z</time>
      </trkpt>
      <trkpt lat="43.2361" lon="6.50353">
        <ele>182.6</ele>
        <time>2018-06-27T08:20:40Z</time>
      </trkpt>
      <trkpt lat="43.23605" lon="6.50343">
        <ele>181.1</ele>
        <time>2018-06-27T08:21:06Z</time>
      </trkpt>
      <trkpt lat="43.23597" lon="6.50338">
        <ele>179.8</ele>
        <time>2018-06-27T08:21:20Z</time>
      </trkpt>
      <trkpt lat="43.23587" lon="6.50335">
        <ele>178.6</ele>
        <time>2018-06-27T08:21:34Z</time>
      </trkpt>
      <trkpt lat="43.23578" lon="6.50332">
        <ele>177.5</ele>
        <time>2018-06-27T08:21:51Z</time>
      </trkpt>
      <trkpt lat="43.23569" lon="6.50329">
        <ele>176.1</ele>
        <time>2018-06-27T08:22:11Z</time>
      </trkpt>
      <trkpt lat="43.23561" lon="6.50326">
        <ele>173.7</ele>
        <time>2018-06-27T08:23:08Z</time>
      </trkpt>
      <trkpt lat="43.23554" lon="6.50318">
        <ele>170.1</ele>
        <time>2018-06-27T08:24:00Z</time>
      </trkpt>
      <trkpt lat="43.23547" lon="6.50309">
        <ele>167.4</ele>
        <time>2018-06-27T08:24:41Z</time>
      </trkpt>
      <trkpt lat="43.2354" lon="6.50301">
        <ele>165.3</ele>
        <time>2018-06-27T08:25:07Z</time>
      </trkpt>
      <trkpt lat="43.23532" lon="6.50294">
        <ele>162.8</ele>
        <time>2018-06-27T08:25:28Z</time>
      </trkpt>
      <trkpt lat="43.23527" lon="6.50283">
        <ele>160.9</ele>
        <time>2018-06-27T08:25:41Z</time>
      </trkpt>
      <trkpt lat="43.23522" lon="6.50273">
        <ele>159.9</ele>
        <time>2018-06-27T08:25:52Z</time>
      </trkpt>
      <trkpt lat="43.23517" lon="6.50261">
        <ele>158.5</ele>
        <time>2018-06-27T08:26:05Z</time>
      </trkpt>
      <trkpt lat="43.23518" lon="6.50249">
        <ele>157.4</ele>
        <time>2018-06-27T08:27:13Z</time>
      </trkpt>
      <trkpt lat="43.23509" lon="6.50247">
        <ele>156.8</ele>
        <time>2018-06-27T08:27:32Z</time>
      </trkpt>
      <trkpt lat="43.23505" lon="6.50236">
        <ele>157.3</ele>
        <time>2018-06-27T08:30:39Z</time>
      </trkpt>
      <trkpt lat="43.235" lon="6.50246">
        <ele>157</ele>
        <time>2018-06-27T08:31:34Z</time>
      </trkpt>
      <trkpt lat="43.23491" lon="6.5025">
        <ele>156.9</ele>
        <time>2018-06-27T08:31:46Z</time>
      </trkpt>
      <trkpt lat="43.23482" lon="6.50253">
        <ele>157.1</ele>
        <time>2018-06-27T08:31:55Z</time>
      </trkpt>
      <trkpt lat="43.23472" lon="6.50254">
        <ele>157.9</ele>
        <time>2018-06-27T08:32:07Z</time>
      </trkpt>
      <trkpt lat="43.23463" lon="6.50253">
        <ele>158.5</ele>
        <time>2018-06-27T08:32:19Z</time>
      </trkpt>
      <trkpt lat="43.23453" lon="6.50252">
        <ele>159.4</ele>
        <time>2018-06-27T08:32:29Z</time>
      </trkpt>
      <trkpt lat="43.23444" lon="6.50249">
        <ele>160.2</ele>
        <time>2018-06-27T08:32:37Z</time>
      </trkpt>
      <trkpt lat="43.23434" lon="6.50247">
        <ele>161.2</ele>
        <time>2018-06-27T08:32:47Z</time>
      </trkpt>
      <trkpt lat="43.23425" lon="6.50243">
        <ele>162.4</ele>
        <time>2018-06-27T08:32:58Z</time>
      </trkpt>
      <trkpt lat="43.23417" lon="6.50237">
        <ele>163.9</ele>
        <time>2018-06-27T08:33:12Z</time>
      </trkpt>
      <trkpt lat="43.23409" lon="6.50229">
        <ele>165.6</ele>
        <time>2018-06-27T08:33:26Z</time>
      </trkpt>
      <trkpt lat="43.23401" lon="6.50222">
        <ele>166.9</ele>
        <time>2018-06-27T08:33:37Z</time>
      </trkpt>
      <trkpt lat="43.23394" lon="6.50216">
        <ele>167.9</ele>
        <time>2018-06-27T08:33:50Z</time>
      </trkpt>
      <trkpt lat="43.23389" lon="6.50205">
        <ele>168.9</ele>
        <time>2018-06-27T08:34:05Z</time>
      </trkpt>
      <trkpt lat="43.23383" lon="6.50194">
        <ele>170.1</ele>
        <time>2018-06-27T08:34:18Z</time>
      </trkpt>
      <trkpt lat="43.23376" lon="6.50186">
        <ele>170.6</ele>
        <time>2018-06-27T08:34:28Z</time>
      </trkpt>
      <trkpt lat="43.23368" lon="6.5018">
        <ele>170.8</ele>
        <time>2018-06-27T08:34:34Z</time>
      </trkpt>
      <trkpt lat="43.2336" lon="6.50174">
        <ele>170.9</ele>
        <time>2018-06-27T08:34:44Z</time>
      </trkpt>
      <trkpt lat="43.2335" lon="6.5017">
        <ele>171.6</ele>
        <time>2018-06-27T08:34:53Z</time>
      </trkpt>
      <trkpt lat="43.2334" lon="6.50165">
        <ele>172.1</ele>
        <time>2018-06-27T08:35:00Z</time>
      </trkpt>
      <trkpt lat="43.23332" lon="6.50161">
        <ele>172.7</ele>
        <time>2018-06-27T08:35:08Z</time>
      </trkpt>
      <trkpt lat="43.23323" lon="6.50155">
        <ele>173.4</ele>
        <time>2018-06-27T08:35:17Z</time>
      </trkpt>
      <trkpt lat="43.23314" lon="6.50149">
        <ele>174.4</ele>
        <time>2018-06-27T08:35:27Z</time>
      </trkpt>
      <trkpt lat="43.23305" lon="6.50143">
        <ele>175.3</ele>
        <time>2018-06-27T08:35:37Z</time>
      </trkpt>
      <trkpt lat="43.23297" lon="6.50137">
        <ele>175.8</ele>
        <time>2018-06-27T08:35:47Z</time>
      </trkpt>
      <trkpt lat="43.23287" lon="6.50133">
        <ele>176.7</ele>
        <time>2018-06-27T08:35:56Z</time>
      </trkpt>
      <trkpt lat="43.23278" lon="6.50128">
        <ele>177.9</ele>
        <time>2018-06-27T08:36:06Z</time>
      </trkpt>
      <trkpt lat="43.23269" lon="6.50124">
        <ele>178.9</ele>
        <time>2018-06-27T08:36:20Z</time>
      </trkpt>
      <trkpt lat="43.2326" lon="6.50122">
        <ele>180.1</ele>
        <time>2018-06-27T08:36:35Z</time>
      </trkpt>
      <trkpt lat="43.23251" lon="6.50121">
        <ele>181.7</ele>
        <time>2018-06-27T08:36:50Z</time>
      </trkpt>
      <trkpt lat="43.23242" lon="6.5012">
        <ele>182.6</ele>
        <time>2018-06-27T08:36:56Z</time>
      </trkpt>
      <trkpt lat="43.23232" lon="6.50119">
        <ele>183.6</ele>
        <time>2018-06-27T08:37:03Z</time>
      </trkpt>
      <trkpt lat="43.23222" lon="6.50116">
        <ele>184.6</ele>
        <time>2018-06-27T08:37:12Z</time>
      </trkpt>
      <trkpt lat="43.23213" lon="6.50112">
        <ele>185.2</ele>
        <time>2018-06-27T08:37:21Z</time>
      </trkpt>
      <trkpt lat="43.23205" lon="6.50107">
        <ele>185.6</ele>
        <time>2018-06-27T08:37:31Z</time>
      </trkpt>
      <trkpt lat="43.23196" lon="6.50104">
        <ele>185.9</ele>
        <time>2018-06-27T08:37:39Z</time>
      </trkpt>
      <trkpt lat="43.23187" lon="6.50101">
        <ele>186.1</ele>
        <time>2018-06-27T08:37:48Z</time>
      </trkpt>
      <trkpt lat="43.23178" lon="6.50096">
        <ele>186.2</ele>
        <time>2018-06-27T08:37:57Z</time>
      </trkpt>
      <trkpt lat="43.23169" lon="6.50092">
        <ele>186.2</ele>
        <time>2018-06-27T08:38:06Z</time>
      </trkpt>
      <trkpt lat="43.2316" lon="6.50086">
        <ele>186.5</ele>
        <time>2018-06-27T08:38:14Z</time>
      </trkpt>
      <trkpt lat="43.23151" lon="6.5008">
        <ele>186.6</ele>
        <time>2018-06-27T08:38:24Z</time>
      </trkpt>
      <trkpt lat="43.23143" lon="6.50076">
        <ele>186.8</ele>
        <time>2018-06-27T08:38:33Z</time>
      </trkpt>
      <trkpt lat="43.23133" lon="6.50076">
        <ele>186.8</ele>
        <time>2018-06-27T08:38:41Z</time>
      </trkpt>
      <trkpt lat="43.23124" lon="6.50077">
        <ele>186.8</ele>
        <time>2018-06-27T08:38:48Z</time>
      </trkpt>
      <trkpt lat="43.23114" lon="6.50077">
        <ele>186.3</ele>
        <time>2018-06-27T08:38:59Z</time>
      </trkpt>
      <trkpt lat="43.23104" lon="6.50076">
        <ele>184.3</ele>
        <time>2018-06-27T08:39:11Z</time>
      </trkpt>
      <trkpt lat="43.23094" lon="6.50074">
        <ele>183.2</ele>
        <time>2018-06-27T08:39:20Z</time>
      </trkpt>
      <trkpt lat="43.23085" lon="6.50072">
        <ele>182.4</ele>
        <time>2018-06-27T08:39:30Z</time>
      </trkpt>
      <trkpt lat="43.23076" lon="6.50072">
        <ele>182.1</ele>
        <time>2018-06-27T08:39:39Z</time>
      </trkpt>
      <trkpt lat="43.23066" lon="6.50074">
        <ele>181.7</ele>
        <time>2018-06-27T08:39:50Z</time>
      </trkpt>
      <trkpt lat="43.23057" lon="6.50078">
        <ele>181</ele>
        <time>2018-06-27T08:40:00Z</time>
      </trkpt>
      <trkpt lat="43.23048" lon="6.50082">
        <ele>179.8</ele>
        <time>2018-06-27T08:40:10Z</time>
      </trkpt>
      <trkpt lat="43.23038" lon="6.50084">
        <ele>177.9</ele>
        <time>2018-06-27T08:40:22Z</time>
      </trkpt>
      <trkpt lat="43.23029" lon="6.50085">
        <ele>176.2</ele>
        <time>2018-06-27T08:40:32Z</time>
      </trkpt>
      <trkpt lat="43.2302" lon="6.50089">
        <ele>174.6</ele>
        <time>2018-06-27T08:40:43Z</time>
      </trkpt>
      <trkpt lat="43.23012" lon="6.50096">
        <ele>173.5</ele>
        <time>2018-06-27T08:40:55Z</time>
      </trkpt>
      <trkpt lat="43.23005" lon="6.50103">
        <ele>172.6</ele>
        <time>2018-06-27T08:41:06Z</time>
      </trkpt>
      <trkpt lat="43.22999" lon="6.50112">
        <ele>171.9</ele>
        <time>2018-06-27T08:41:14Z</time>
      </trkpt>
      <trkpt lat="43.22993" lon="6.50123">
        <ele>171.1</ele>
        <time>2018-06-27T08:41:26Z</time>
      </trkpt>
      <trkpt lat="43.22983" lon="6.50122">
        <ele>170.2</ele>
        <time>2018-06-27T08:42:02Z</time>
      </trkpt>
      <trkpt lat="43.22991" lon="6.50128">
        <ele>170.6</ele>
        <time>2018-06-27T08:42:51Z</time>
      </trkpt>
      <trkpt lat="43.22993" lon="6.50141">
        <ele>169.8</ele>
        <time>2018-06-27T08:43:08Z</time>
      </trkpt>
      <trkpt lat="43.22995" lon="6.50153">
        <ele>168.8</ele>
        <time>2018-06-27T08:43:26Z</time>
      </trkpt>
      <trkpt lat="43.22993" lon="6.50166">
        <ele>167.2</ele>
        <time>2018-06-27T08:43:42Z</time>
      </trkpt>
      <trkpt lat="43.22994" lon="6.50179">
        <ele>165.7</ele>
        <time>2018-06-27T08:43:52Z</time>
      </trkpt>
      <trkpt lat="43.22997" lon="6.50191">
        <ele>163.7</ele>
        <time>2018-06-27T08:44:04Z</time>
      </trkpt>
      <trkpt lat="43.22999" lon="6.50203">
        <ele>162.4</ele>
        <time>2018-06-27T08:44:12Z</time>
      </trkpt>
      <trkpt lat="43.23004" lon="6.50215">
        <ele>161.2</ele>
        <time>2018-06-27T08:44:21Z</time>
      </trkpt>
      <trkpt lat="43.2301" lon="6.50225">
        <ele>159.6</ele>
        <time>2018-06-27T08:44:33Z</time>
      </trkpt>
      <trkpt lat="43.23015" lon="6.50236">
        <ele>158.2</ele>
        <time>2018-06-27T08:44:44Z</time>
      </trkpt>
      <trkpt lat="43.23019" lon="6.50248">
        <ele>156.2</ele>
        <time>2018-06-27T08:44:56Z</time>
      </trkpt>
      <trkpt lat="43.23022" lon="6.5026">
        <ele>154.1</ele>
        <time>2018-06-27T08:45:08Z</time>
      </trkpt>
      <trkpt lat="43.23027" lon="6.50272">
        <ele>152.6</ele>
        <time>2018-06-27T08:45:20Z</time>
      </trkpt>
      <trkpt lat="43.23034" lon="6.5028">
        <ele>151.1</ele>
        <time>2018-06-27T08:45:31Z</time>
      </trkpt>
      <trkpt lat="43.23039" lon="6.50291">
        <ele>149.4</ele>
        <time>2018-06-27T08:45:41Z</time>
      </trkpt>
      <trkpt lat="43.23043" lon="6.50303">
        <ele>148.6</ele>
        <time>2018-06-27T08:45:50Z</time>
      </trkpt>
      <trkpt lat="43.23045" lon="6.50316">
        <ele>148</ele>
        <time>2018-06-27T08:45:57Z</time>
      </trkpt>
      <trkpt lat="43.23046" lon="6.50328">
        <ele>147.6</ele>
        <time>2018-06-27T08:46:06Z</time>
      </trkpt>
      <trkpt lat="43.23048" lon="6.50341">
        <ele>147</ele>
        <time>2018-06-27T08:46:15Z</time>
      </trkpt>
      <trkpt lat="43.23051" lon="6.50354">
        <ele>145.8</ele>
        <time>2018-06-27T08:46:26Z</time>
      </trkpt>
      <trkpt lat="43.23055" lon="6.50365">
        <ele>144.8</ele>
        <time>2018-06-27T08:46:36Z</time>
      </trkpt>
      <trkpt lat="43.23059" lon="6.50376">
        <ele>142.9</ele>
        <time>2018-06-27T08:46:47Z</time>
      </trkpt>
      <trkpt lat="43.23062" lon="6.50389">
        <ele>141</ele>
        <time>2018-06-27T08:46:58Z</time>
      </trkpt>
      <trkpt lat="43.23062" lon="6.50402">
        <ele>139.4</ele>
        <time>2018-06-27T08:47:09Z</time>
      </trkpt>
      <trkpt lat="43.23064" lon="6.50414">
        <ele>138.3</ele>
        <time>2018-06-27T08:47:20Z</time>
      </trkpt>
      <trkpt lat="43.23067" lon="6.50426">
        <ele>135.9</ele>
        <time>2018-06-27T08:47:31Z</time>
      </trkpt>
      <trkpt lat="43.23069" lon="6.50439">
        <ele>132.8</ele>
        <time>2018-06-27T08:47:47Z</time>
      </trkpt>
      <trkpt lat="43.23072" lon="6.50451">
        <ele>130.8</ele>
        <time>2018-06-27T08:47:59Z</time>
      </trkpt>
      <trkpt lat="43.23073" lon="6.50465">
        <ele>129.1</ele>
        <time>2018-06-27T08:48:08Z</time>
      </trkpt>
      <trkpt lat="43.23076" lon="6.50477">
        <ele>128</ele>
        <time>2018-06-27T08:48:15Z</time>
      </trkpt>
      <trkpt lat="43.23077" lon="6.50491">
        <ele>127</ele>
        <time>2018-06-27T08:48:25Z</time>
      </trkpt>
      <trkpt lat="43.23076" lon="6.50503">
        <ele>126.3</ele>
        <time>2018-06-27T08:48:32Z</time>
      </trkpt>
      <trkpt lat="43.23077" lon="6.50516">
        <ele>125.9</ele>
        <time>2018-06-27T08:48:41Z</time>
      </trkpt>
      <trkpt lat="43.23079" lon="6.50529">
        <ele>125.1</ele>
        <time>2018-06-27T08:48:51Z</time>
      </trkpt>
      <trkpt lat="43.23083" lon="6.5054">
        <ele>124.4</ele>
        <time>2018-06-27T08:49:00Z</time>
      </trkpt>
      <trkpt lat="43.23088" lon="6.50551">
        <ele>122.3</ele>
        <time>2018-06-27T08:49:13Z</time>
      </trkpt>
      <trkpt lat="43.2309" lon="6.50564">
        <ele>119.9</ele>
        <time>2018-06-27T08:49:26Z</time>
      </trkpt>
      <trkpt lat="43.23093" lon="6.50576">
        <ele>118.2</ele>
        <time>2018-06-27T08:49:36Z</time>
      </trkpt>
      <trkpt lat="43.23096" lon="6.50588">
        <ele>116.6</ele>
        <time>2018-06-27T08:49:48Z</time>
      </trkpt>
      <trkpt lat="43.231" lon="6.50601">
        <ele>114.4</ele>
        <time>2018-06-27T08:49:59Z</time>
      </trkpt>
      <trkpt lat="43.23102" lon="6.50613">
        <ele>111.9</ele>
        <time>2018-06-27T08:50:12Z</time>
      </trkpt>
      <trkpt lat="43.23105" lon="6.50626">
        <ele>110.6</ele>
        <time>2018-06-27T08:50:20Z</time>
      </trkpt>
      <trkpt lat="43.2311" lon="6.50637">
        <ele>109.9</ele>
        <time>2018-06-27T08:50:28Z</time>
      </trkpt>
      <trkpt lat="43.23111" lon="6.50649">
        <ele>108.4</ele>
        <time>2018-06-27T08:50:39Z</time>
      </trkpt>
      <trkpt lat="43.23116" lon="6.5066">
        <ele>106.7</ele>
        <time>2018-06-27T08:50:52Z</time>
      </trkpt>
      <trkpt lat="43.2312" lon="6.50671">
        <ele>103.9</ele>
        <time>2018-06-27T08:51:06Z</time>
      </trkpt>
      <trkpt lat="43.23124" lon="6.50684">
        <ele>102.1</ele>
        <time>2018-06-27T08:51:19Z</time>
      </trkpt>
      <trkpt lat="43.2313" lon="6.50693">
        <ele>101.2</ele>
        <time>2018-06-27T08:51:30Z</time>
      </trkpt>
      <trkpt lat="43.23138" lon="6.507">
        <ele>99.5</ele>
        <time>2018-06-27T08:51:40Z</time>
      </trkpt>
      <trkpt lat="43.23144" lon="6.5071">
        <ele>97.6</ele>
        <time>2018-06-27T08:51:51Z</time>
      </trkpt>
      <trkpt lat="43.23146" lon="6.50722">
        <ele>95.2</ele>
        <time>2018-06-27T08:52:07Z</time>
      </trkpt>
      <trkpt lat="43.23152" lon="6.50732">
        <ele>92.8</ele>
        <time>2018-06-27T08:52:22Z</time>
      </trkpt>
      <trkpt lat="43.23155" lon="6.50745">
        <ele>89.9</ele>
        <time>2018-06-27T08:52:39Z</time>
      </trkpt>
      <trkpt lat="43.23158" lon="6.50757">
        <ele>87.9</ele>
        <time>2018-06-27T08:52:52Z</time>
      </trkpt>
      <trkpt lat="43.23162" lon="6.50768">
        <ele>84.8</ele>
        <time>2018-06-27T08:53:10Z</time>
      </trkpt>
      <trkpt lat="43.23168" lon="6.50779">
        <ele>82.1</ele>
        <time>2018-06-27T08:53:23Z</time>
      </trkpt>
      <trkpt lat="43.23172" lon="6.50792">
        <ele>79.7</ele>
        <time>2018-06-27T08:53:37Z</time>
      </trkpt>
      <trkpt lat="43.23177" lon="6.50803">
        <ele>77.7</ele>
        <time>2018-06-27T08:53:54Z</time>
      </trkpt>
      <trkpt lat="43.23178" lon="6.50815">
        <ele>76.3</ele>
        <time>2018-06-27T08:54:08Z</time>
      </trkpt>
      <trkpt lat="43.2318" lon="6.50828">
        <ele>74</ele>
        <time>2018-06-27T08:54:22Z</time>
      </trkpt>
      <trkpt lat="43.23184" lon="6.5084">
        <ele>72.9</ele>
        <time>2018-06-27T08:54:36Z</time>
      </trkpt>
      <trkpt lat="43.23186" lon="6.50852">
        <ele>71.4</ele>
        <time>2018-06-27T08:54:47Z</time>
      </trkpt>
      <trkpt lat="43.23187" lon="6.50865">
        <ele>69.5</ele>
        <time>2018-06-27T08:54:59Z</time>
      </trkpt>
      <trkpt lat="43.23192" lon="6.50875">
        <ele>67.9</ele>
        <time>2018-06-27T08:55:14Z</time>
      </trkpt>
      <trkpt lat="43.23198" lon="6.50884">
        <ele>66.3</ele>
        <time>2018-06-27T08:55:33Z</time>
      </trkpt>
      <trkpt lat="43.23205" lon="6.50893">
        <ele>63</ele>
        <time>2018-06-27T08:56:26Z</time>
      </trkpt>
      <trkpt lat="43.23209" lon="6.50882">
        <ele>62.9</ele>
        <time>2018-06-27T08:59:52Z</time>
      </trkpt>
      <trkpt lat="43.23208" lon="6.50895">
        <ele>62.8</ele>
        <time>2018-06-27T09:01:23Z</time>
      </trkpt>
      <trkpt lat="43.23209" lon="6.50909">
        <ele>62.2</ele>
        <time>2018-06-27T09:01:34Z</time>
      </trkpt>
      <trkpt lat="43.23208" lon="6.50922">
        <ele>61.4</ele>
        <time>2018-06-27T09:01:43Z</time>
      </trkpt>
      <trkpt lat="43.23207" lon="6.50935">
        <ele>61.3</ele>
        <time>2018-06-27T09:01:52Z</time>
      </trkpt>
      <trkpt lat="43.23204" lon="6.50948">
        <ele>61.1</ele>
        <time>2018-06-27T09:02:03Z</time>
      </trkpt>
      <trkpt lat="43.23199" lon="6.5096">
        <ele>60.7</ele>
        <time>2018-06-27T09:02:10Z</time>
      </trkpt>
      <trkpt lat="43.23195" lon="6.50971">
        <ele>60.5</ele>
        <time>2018-06-27T09:02:18Z</time>
      </trkpt>
      <trkpt lat="43.23189" lon="6.50983">
        <ele>60.3</ele>
        <time>2018-06-27T09:02:26Z</time>
      </trkpt>
      <trkpt lat="43.23184" lon="6.50993">
        <ele>59.1</ele>
        <time>2018-06-27T09:02:34Z</time>
      </trkpt>
      <trkpt lat="43.23178" lon="6.51004">
        <ele>57.8</ele>
        <time>2018-06-27T09:02:43Z</time>
      </trkpt>
      <trkpt lat="43.23178" lon="6.51017">
        <ele>56.8</ele>
        <time>2018-06-27T09:02:52Z</time>
      </trkpt>
      <trkpt lat="43.23184" lon="6.51028">
        <ele>55</ele>
        <time>2018-06-27T09:03:01Z</time>
      </trkpt>
      <trkpt lat="43.23191" lon="6.51037">
        <ele>54.5</ele>
        <time>2018-06-27T09:03:09Z</time>
      </trkpt>
      <trkpt lat="43.23197" lon="6.51046">
        <ele>53.8</ele>
        <time>2018-06-27T09:03:18Z</time>
      </trkpt>
      <trkpt lat="43.232" lon="6.51058">
        <ele>52.9</ele>
        <time>2018-06-27T09:03:26Z</time>
      </trkpt>
      <trkpt lat="43.232" lon="6.51071">
        <ele>52.4</ele>
        <time>2018-06-27T09:03:35Z</time>
      </trkpt>
      <trkpt lat="43.23198" lon="6.51084">
        <ele>51.8</ele>
        <time>2018-06-27T09:03:43Z</time>
      </trkpt>
      <trkpt lat="43.23196" lon="6.51096">
        <ele>51.2</ele>
        <time>2018-06-27T09:03:51Z</time>
      </trkpt>
      <trkpt lat="43.23191" lon="6.51108">
        <ele>50.5</ele>
        <time>2018-06-27T09:03:59Z</time>
      </trkpt>
      <trkpt lat="43.23185" lon="6.51119">
        <ele>49.9</ele>
        <time>2018-06-27T09:04:10Z</time>
      </trkpt>
      <trkpt lat="43.2318" lon="6.5113">
        <ele>49.5</ele>
        <time>2018-06-27T09:04:22Z</time>
      </trkpt>
      <trkpt lat="43.23177" lon="6.51143">
        <ele>49.2</ele>
        <time>2018-06-27T09:04:31Z</time>
      </trkpt>
      <trkpt lat="43.23174" lon="6.51154">
        <ele>49.1</ele>
        <time>2018-06-27T09:04:38Z</time>
      </trkpt>
      <trkpt lat="43.23171" lon="6.51166">
        <ele>49</ele>
        <time>2018-06-27T09:04:45Z</time>
      </trkpt>
      <trkpt lat="43.23169" lon="6.5118">
        <ele>48.7</ele>
        <time>2018-06-27T09:04:54Z</time>
      </trkpt>
      <trkpt lat="43.23168" lon="6.51193">
        <ele>48.6</ele>
        <time>2018-06-27T09:05:02Z</time>
      </trkpt>
      <trkpt lat="43.23167" lon="6.51206">
        <ele>48.4</ele>
        <time>2018-06-27T09:05:10Z</time>
      </trkpt>
      <trkpt lat="43.23166" lon="6.5122">
        <ele>48.3</ele>
        <time>2018-06-27T09:05:19Z</time>
      </trkpt>
      <trkpt lat="43.23166" lon="6.51232">
        <ele>48.6</ele>
        <time>2018-06-27T09:05:27Z</time>
      </trkpt>
      <trkpt lat="43.23165" lon="6.51244">
        <ele>48.8</ele>
        <time>2018-06-27T09:05:35Z</time>
      </trkpt>
      <trkpt lat="43.23162" lon="6.51257">
        <ele>48.6</ele>
        <time>2018-06-27T09:05:44Z</time>
      </trkpt>
      <trkpt lat="43.23157" lon="6.51269">
        <ele>48.1</ele>
        <time>2018-06-27T09:05:52Z</time>
      </trkpt>
      <trkpt lat="43.23151" lon="6.5128">
        <ele>47.2</ele>
        <time>2018-06-27T09:05:59Z</time>
      </trkpt>
      <trkpt lat="43.23144" lon="6.51288">
        <ele>46.9</ele>
        <time>2018-06-27T09:06:06Z</time>
      </trkpt>
      <trkpt lat="43.23137" lon="6.51295">
        <ele>46.3</ele>
        <time>2018-06-27T09:06:14Z</time>
      </trkpt>
      <trkpt lat="43.23128" lon="6.51301">
        <ele>46.1</ele>
        <time>2018-06-27T09:06:23Z</time>
      </trkpt>
      <trkpt lat="43.23118" lon="6.51305">
        <ele>45.1</ele>
        <time>2018-06-27T09:06:33Z</time>
      </trkpt>
      <trkpt lat="43.23109" lon="6.51306">
        <ele>44.6</ele>
        <time>2018-06-27T09:06:41Z</time>
      </trkpt>
      <trkpt lat="43.231" lon="6.51308">
        <ele>44</ele>
        <time>2018-06-27T09:06:48Z</time>
      </trkpt>
      <trkpt lat="43.23091" lon="6.51309">
        <ele>43.6</ele>
        <time>2018-06-27T09:06:55Z</time>
      </trkpt>
      <trkpt lat="43.23081" lon="6.5131">
        <ele>43.3</ele>
        <time>2018-06-27T09:07:03Z</time>
      </trkpt>
      <trkpt lat="43.23071" lon="6.51313">
        <ele>43</ele>
        <time>2018-06-27T09:07:11Z</time>
      </trkpt>
      <trkpt lat="43.23062" lon="6.51315">
        <ele>42.7</ele>
        <time>2018-06-27T09:07:19Z</time>
      </trkpt>
      <trkpt lat="43.23052" lon="6.51316">
        <ele>42.3</ele>
        <time>2018-06-27T09:07:28Z</time>
      </trkpt>
      <trkpt lat="43.23042" lon="6.51319">
        <ele>42.3</ele>
        <time>2018-06-27T09:07:35Z</time>
      </trkpt>
      <trkpt lat="43.23034" lon="6.51323">
        <ele>42.3</ele>
        <time>2018-06-27T09:07:44Z</time>
      </trkpt>
      <trkpt lat="43.23025" lon="6.51324">
        <ele>42.4</ele>
        <time>2018-06-27T09:07:53Z</time>
      </trkpt>
      <trkpt lat="43.23015" lon="6.51325">
        <ele>42.3</ele>
        <time>2018-06-27T09:07:59Z</time>
      </trkpt>
      <trkpt lat="43.23006" lon="6.5133">
        <ele>42</ele>
        <time>2018-06-27T09:08:06Z</time>
      </trkpt>
      <trkpt lat="43.22998" lon="6.51337">
        <ele>41.8</ele>
        <time>2018-06-27T09:08:13Z</time>
      </trkpt>
      <trkpt lat="43.22988" lon="6.5134">
        <ele>41.9</ele>
        <time>2018-06-27T09:08:21Z</time>
      </trkpt>
      <trkpt lat="43.22978" lon="6.51343">
        <ele>42</ele>
        <time>2018-06-27T09:08:29Z</time>
      </trkpt>
      <trkpt lat="43.22968" lon="6.51346">
        <ele>42</ele>
        <time>2018-06-27T09:08:37Z</time>
      </trkpt>
      <trkpt lat="43.2296" lon="6.5135">
        <ele>42.3</ele>
        <time>2018-06-27T09:08:53Z</time>
      </trkpt>
      <trkpt lat="43.2296" lon="6.51363">
        <ele>42.4</ele>
        <time>2018-06-27T09:09:05Z</time>
      </trkpt>
      <trkpt lat="43.2296" lon="6.51377">
        <ele>42.4</ele>
        <time>2018-06-27T09:09:17Z</time>
      </trkpt>
      <trkpt lat="43.22959" lon="6.5139">
        <ele>42.6</ele>
        <time>2018-06-27T09:09:29Z</time>
      </trkpt>
      <trkpt lat="43.22958" lon="6.51404">
        <ele>42.6</ele>
        <time>2018-06-27T09:09:38Z</time>
      </trkpt>
      <trkpt lat="43.22957" lon="6.51416">
        <ele>42.6</ele>
        <time>2018-06-27T09:09:46Z</time>
      </trkpt>
      <trkpt lat="43.22955" lon="6.51428">
        <ele>42.4</ele>
        <time>2018-06-27T09:10:04Z</time>
      </trkpt>
      <trkpt lat="43.22946" lon="6.51434">
        <ele>42.1</ele>
        <time>2018-06-27T09:10:28Z</time>
      </trkpt>
      <trkpt lat="43.22937" lon="6.5144">
        <ele>42.1</ele>
        <time>2018-06-27T09:10:36Z</time>
      </trkpt>
      <trkpt lat="43.22929" lon="6.51448">
        <ele>42.2</ele>
        <time>2018-06-27T09:10:44Z</time>
      </trkpt>
      <trkpt lat="43.22921" lon="6.51455">
        <ele>42.1</ele>
        <time>2018-06-27T09:10:52Z</time>
      </trkpt>
      <trkpt lat="43.22913" lon="6.51463">
        <ele>42.3</ele>
        <time>2018-06-27T09:11:00Z</time>
      </trkpt>
      <trkpt lat="43.22906" lon="6.51471">
        <ele>42.4</ele>
        <time>2018-06-27T09:11:08Z</time>
      </trkpt>
      <trkpt lat="43.22897" lon="6.51479">
        <ele>42.8</ele>
        <time>2018-06-27T09:11:16Z</time>
      </trkpt>
      <trkpt lat="43.22889" lon="6.51487">
        <ele>42.7</ele>
        <time>2018-06-27T09:11:24Z</time>
      </trkpt>
      <trkpt lat="43.22882" lon="6.51494">
        <ele>42.8</ele>
        <time>2018-06-27T09:11:32Z</time>
      </trkpt>
      <trkpt lat="43.22873" lon="6.51499">
        <ele>43</ele>
        <time>2018-06-27T09:11:47Z</time>
      </trkpt>
      <trkpt lat="43.22863" lon="6.51501">
        <ele>43.2</ele>
        <time>2018-06-27T09:11:58Z</time>
      </trkpt>
      <trkpt lat="43.22854" lon="6.51504">
        <ele>43.3</ele>
        <time>2018-06-27T09:12:08Z</time>
      </trkpt>
      <trkpt lat="43.22844" lon="6.51505">
        <ele>42.9</ele>
        <time>2018-06-27T09:12:16Z</time>
      </trkpt>
      <trkpt lat="43.22834" lon="6.51505">
        <ele>42.5</ele>
        <time>2018-06-27T09:12:24Z</time>
      </trkpt>
      <trkpt lat="43.22824" lon="6.51507">
        <ele>42.4</ele>
        <time>2018-06-27T09:12:36Z</time>
      </trkpt>
      <trkpt lat="43.22815" lon="6.51507">
        <ele>42.5</ele>
        <time>2018-06-27T09:12:46Z</time>
      </trkpt>
      <trkpt lat="43.22806" lon="6.51505">
        <ele>42.7</ele>
        <time>2018-06-27T09:12:55Z</time>
      </trkpt>
      <trkpt lat="43.22796" lon="6.51501">
        <ele>42.9</ele>
        <time>2018-06-27T09:13:04Z</time>
      </trkpt>
      <trkpt lat="43.22787" lon="6.51497">
        <ele>43</ele>
        <time>2018-06-27T09:13:11Z</time>
      </trkpt>
      <trkpt lat="43.22778" lon="6.51495">
        <ele>43.1</ele>
        <time>2018-06-27T09:13:18Z</time>
      </trkpt>
      <trkpt lat="43.22768" lon="6.51495">
        <ele>43.2</ele>
        <time>2018-06-27T09:13:26Z</time>
      </trkpt>
      <trkpt lat="43.2276" lon="6.515">
        <ele>43.5</ele>
        <time>2018-06-27T09:13:35Z</time>
      </trkpt>
      <trkpt lat="43.22754" lon="6.5151">
        <ele>43.7</ele>
        <time>2018-06-27T09:13:46Z</time>
      </trkpt>
      <trkpt lat="43.22753" lon="6.51523">
        <ele>43.5</ele>
        <time>2018-06-27T09:13:58Z</time>
      </trkpt>
      <trkpt lat="43.22754" lon="6.51536">
        <ele>43.4</ele>
        <time>2018-06-27T09:14:07Z</time>
      </trkpt>
      <trkpt lat="43.22755" lon="6.5155">
        <ele>43.2</ele>
        <time>2018-06-27T09:14:17Z</time>
      </trkpt>
      <trkpt lat="43.22758" lon="6.51562">
        <ele>43.2</ele>
        <time>2018-06-27T09:14:27Z</time>
      </trkpt>
      <trkpt lat="43.22759" lon="6.51575">
        <ele>43.2</ele>
        <time>2018-06-27T09:14:37Z</time>
      </trkpt>
      <trkpt lat="43.22758" lon="6.51587">
        <ele>43.3</ele>
        <time>2018-06-27T09:14:45Z</time>
      </trkpt>
      <trkpt lat="43.22755" lon="6.516">
        <ele>43.2</ele>
        <time>2018-06-27T09:14:52Z</time>
      </trkpt>
      <trkpt lat="43.22753" lon="6.51612">
        <ele>43.6</ele>
        <time>2018-06-27T09:15:01Z</time>
      </trkpt>
      <trkpt lat="43.2275" lon="6.51625">
        <ele>43.7</ele>
        <time>2018-06-27T09:15:09Z</time>
      </trkpt>
      <trkpt lat="43.2275" lon="6.51638">
        <ele>44</ele>
        <time>2018-06-27T09:15:19Z</time>
      </trkpt>
      <trkpt lat="43.2275" lon="6.51652">
        <ele>44.2</ele>
        <time>2018-06-27T09:15:28Z</time>
      </trkpt>
      <trkpt lat="43.2275" lon="6.51664">
        <ele>44.4</ele>
        <time>2018-06-27T09:15:35Z</time>
      </trkpt>
      <trkpt lat="43.22751" lon="6.51677">
        <ele>43.9</ele>
        <time>2018-06-27T09:15:43Z</time>
      </trkpt>
      <trkpt lat="43.22752" lon="6.51691">
        <ele>43.8</ele>
        <time>2018-06-27T09:15:51Z</time>
      </trkpt>
      <trkpt lat="43.22752" lon="6.51704">
        <ele>43.8</ele>
        <time>2018-06-27T09:15:58Z</time>
      </trkpt>
      <trkpt lat="43.22752" lon="6.51717">
        <ele>43.6</ele>
        <time>2018-06-27T09:16:04Z</time>
      </trkpt>
      <trkpt lat="43.22752" lon="6.51731">
        <ele>43.7</ele>
        <time>2018-06-27T09:16:11Z</time>
      </trkpt>
      <trkpt lat="43.22749" lon="6.51744">
        <ele>44</ele>
        <time>2018-06-27T09:16:18Z</time>
      </trkpt>
      <trkpt lat="43.22746" lon="6.51756">
        <ele>44.2</ele>
        <time>2018-06-27T09:16:27Z</time>
      </trkpt>
      <trkpt lat="43.22744" lon="6.5177">
        <ele>44.2</ele>
        <time>2018-06-27T09:16:37Z</time>
      </trkpt>
      <trkpt lat="43.22741" lon="6.51783">
        <ele>44</ele>
        <time>2018-06-27T09:16:44Z</time>
      </trkpt>
      <trkpt lat="43.22738" lon="6.51795">
        <ele>44.1</ele>
        <time>2018-06-27T09:16:50Z</time>
      </trkpt>
      <trkpt lat="43.22735" lon="6.51809">
        <ele>43.6</ele>
        <time>2018-06-27T09:16:58Z</time>
      </trkpt>
      <trkpt lat="43.22733" lon="6.51822">
        <ele>43.5</ele>
        <time>2018-06-27T09:17:07Z</time>
      </trkpt>
      <trkpt lat="43.22729" lon="6.51834">
        <ele>44.2</ele>
        <time>2018-06-27T09:17:15Z</time>
      </trkpt>
      <trkpt lat="43.22726" lon="6.51846">
        <ele>44</ele>
        <time>2018-06-27T09:17:23Z</time>
      </trkpt>
      <trkpt lat="43.22724" lon="6.51858">
        <ele>43.8</ele>
        <time>2018-06-27T09:17:31Z</time>
      </trkpt>
      <trkpt lat="43.2272" lon="6.5187">
        <ele>43.7</ele>
        <time>2018-06-27T09:17:38Z</time>
      </trkpt>
      <trkpt lat="43.22715" lon="6.51882">
        <ele>43.8</ele>
        <time>2018-06-27T09:17:45Z</time>
      </trkpt>
      <trkpt lat="43.22711" lon="6.51894">
        <ele>43.7</ele>
        <time>2018-06-27T09:17:52Z</time>
      </trkpt>
      <trkpt lat="43.22706" lon="6.51906">
        <ele>43.7</ele>
        <time>2018-06-27T09:18:00Z</time>
      </trkpt>
      <trkpt lat="43.22702" lon="6.51918">
        <ele>43.6</ele>
        <time>2018-06-27T09:18:08Z</time>
      </trkpt>
      <trkpt lat="43.22699" lon="6.5193">
        <ele>43.8</ele>
        <time>2018-06-27T09:18:16Z</time>
      </trkpt>
      <trkpt lat="43.22697" lon="6.51942">
        <ele>44.2</ele>
        <time>2018-06-27T09:18:24Z</time>
      </trkpt>
      <trkpt lat="43.22698" lon="6.51954">
        <ele>44.4</ele>
        <time>2018-06-27T09:18:32Z</time>
      </trkpt>
      <trkpt lat="43.22699" lon="6.51967">
        <ele>44.4</ele>
        <time>2018-06-27T09:18:41Z</time>
      </trkpt>
      <trkpt lat="43.22701" lon="6.5198">
        <ele>44.4</ele>
        <time>2018-06-27T09:18:59Z</time>
      </trkpt>
      <trkpt lat="43.22706" lon="6.51991">
        <ele>43.4</ele>
        <time>2018-06-27T09:20:43Z</time>
      </trkpt>
      <trkpt lat="43.22707" lon="6.52005">
        <ele>43.6</ele>
        <time>2018-06-27T09:20:53Z</time>
      </trkpt>
      <trkpt lat="43.2271" lon="6.52018">
        <ele>43.5</ele>
        <time>2018-06-27T09:21:01Z</time>
      </trkpt>
      <trkpt lat="43.22712" lon="6.5203">
        <ele>43.6</ele>
        <time>2018-06-27T09:21:10Z</time>
      </trkpt>
      <trkpt lat="43.22714" lon="6.52043">
        <ele>43.5</ele>
        <time>2018-06-27T09:21:21Z</time>
      </trkpt>
      <trkpt lat="43.22713" lon="6.52056">
        <ele>43.6</ele>
        <time>2018-06-27T09:21:30Z</time>
      </trkpt>
      <trkpt lat="43.22712" lon="6.52069">
        <ele>43.8</ele>
        <time>2018-06-27T09:21:40Z</time>
      </trkpt>
      <trkpt lat="43.2271" lon="6.52081">
        <ele>43.8</ele>
        <time>2018-06-27T09:21:48Z</time>
      </trkpt>
      <trkpt lat="43.22714" lon="6.52092">
        <ele>44.2</ele>
        <time>2018-06-27T09:22:43Z</time>
      </trkpt>
      <trkpt lat="43.22712" lon="6.52105">
        <ele>44.3</ele>
        <time>2018-06-27T09:23:32Z</time>
      </trkpt>
      <trkpt lat="43.22718" lon="6.52116">
        <ele>43.8</ele>
        <time>2018-06-27T09:23:45Z</time>
      </trkpt>
      <trkpt lat="43.22723" lon="6.52127">
        <ele>43.7</ele>
        <time>2018-06-27T09:23:53Z</time>
      </trkpt>
      <trkpt lat="43.22729" lon="6.52137">
        <ele>43.4</ele>
        <time>2018-06-27T09:24:00Z</time>
      </trkpt>
      <trkpt lat="43.22735" lon="6.52146">
        <ele>43.5</ele>
        <time>2018-06-27T09:24:07Z</time>
      </trkpt>
      <trkpt lat="43.22743" lon="6.52155">
        <ele>43.1</ele>
        <time>2018-06-27T09:24:15Z</time>
      </trkpt>
      <trkpt lat="43.22749" lon="6.52165">
        <ele>42.9</ele>
        <time>2018-06-27T09:24:32Z</time>
      </trkpt>
      <trkpt lat="43.22755" lon="6.52174">
        <ele>42.5</ele>
        <time>2018-06-27T09:24:51Z</time>
      </trkpt>
      <trkpt lat="43.22764" lon="6.52178">
        <ele>42.1</ele>
        <time>2018-06-27T09:25:01Z</time>
      </trkpt>
      <trkpt lat="43.22773" lon="6.52183">
        <ele>42.1</ele>
        <time>2018-06-27T09:25:09Z</time>
      </trkpt>
      <trkpt lat="43.22781" lon="6.52188">
        <ele>42</ele>
        <time>2018-06-27T09:25:17Z</time>
      </trkpt>
      <trkpt lat="43.2279" lon="6.52191">
        <ele>42.1</ele>
        <time>2018-06-27T09:25:25Z</time>
      </trkpt>
      <trkpt lat="43.22799" lon="6.52192">
        <ele>41.8</ele>
        <time>2018-06-27T09:25:33Z</time>
      </trkpt>
      <trkpt lat="43.22808" lon="6.52196">
        <ele>41.8</ele>
        <time>2018-06-27T09:25:41Z</time>
      </trkpt>
      <trkpt lat="43.22818" lon="6.52196">
        <ele>41.9</ele>
        <time>2018-06-27T09:25:48Z</time>
      </trkpt>
      <trkpt lat="43.22828" lon="6.52198">
        <ele>42.1</ele>
        <time>2018-06-27T09:25:57Z</time>
      </trkpt>
      <trkpt lat="43.22838" lon="6.52199">
        <ele>41.9</ele>
        <time>2018-06-27T09:26:04Z</time>
      </trkpt>
      <trkpt lat="43.22847" lon="6.522">
        <ele>41.8</ele>
        <time>2018-06-27T09:26:11Z</time>
      </trkpt>
      <trkpt lat="43.22857" lon="6.52201">
        <ele>41.9</ele>
        <time>2018-06-27T09:26:19Z</time>
      </trkpt>
      <trkpt lat="43.22867" lon="6.52202">
        <ele>42</ele>
        <time>2018-06-27T09:26:27Z</time>
      </trkpt>
      <trkpt lat="43.22876" lon="6.52203">
        <ele>42.3</ele>
        <time>2018-06-27T09:26:35Z</time>
      </trkpt>
      <trkpt lat="43.22886" lon="6.52207">
        <ele>42.2</ele>
        <time>2018-06-27T09:26:44Z</time>
      </trkpt>
      <trkpt lat="43.22894" lon="6.52214">
        <ele>42.4</ele>
        <time>2018-06-27T09:26:52Z</time>
      </trkpt>
      <trkpt lat="43.22901" lon="6.52221">
        <ele>42.3</ele>
        <time>2018-06-27T09:27:00Z</time>
      </trkpt>
      <trkpt lat="43.2291" lon="6.52227">
        <ele>42.3</ele>
        <time>2018-06-27T09:27:09Z</time>
      </trkpt>
      <trkpt lat="43.22917" lon="6.52235">
        <ele>42.7</ele>
        <time>2018-06-27T09:27:18Z</time>
      </trkpt>
      <trkpt lat="43.22923" lon="6.52245">
        <ele>42.8</ele>
        <time>2018-06-27T09:27:27Z</time>
      </trkpt>
      <trkpt lat="43.22926" lon="6.52257">
        <ele>43.1</ele>
        <time>2018-06-27T09:27:40Z</time>
      </trkpt>
      <trkpt lat="43.22931" lon="6.5227">
        <ele>42.6</ele>
        <time>2018-06-27T09:27:51Z</time>
      </trkpt>
      <trkpt lat="43.22937" lon="6.52281">
        <ele>42.1</ele>
        <time>2018-06-27T09:27:58Z</time>
      </trkpt>
      <trkpt lat="43.22941" lon="6.52292">
        <ele>42</ele>
        <time>2018-06-27T09:28:04Z</time>
      </trkpt>
      <trkpt lat="43.22945" lon="6.52305">
        <ele>42.4</ele>
        <time>2018-06-27T09:28:12Z</time>
      </trkpt>
      <trkpt lat="43.2295" lon="6.52316">
        <ele>42.7</ele>
        <time>2018-06-27T09:28:20Z</time>
      </trkpt>
      <trkpt lat="43.22952" lon="6.52328">
        <ele>43</ele>
        <time>2018-06-27T09:28:28Z</time>
      </trkpt>
      <trkpt lat="43.22955" lon="6.52341">
        <ele>43.2</ele>
        <time>2018-06-27T09:28:38Z</time>
      </trkpt>
      <trkpt lat="43.22961" lon="6.52352">
        <ele>43.1</ele>
        <time>2018-06-27T09:28:44Z</time>
      </trkpt>
      <trkpt lat="43.22966" lon="6.52363">
        <ele>43.1</ele>
        <time>2018-06-27T09:28:55Z</time>
      </trkpt>
      <trkpt lat="43.2297" lon="6.52374">
        <ele>43.1</ele>
        <time>2018-06-27T09:30:15Z</time>
      </trkpt>
      <trkpt lat="43.22975" lon="6.52386">
        <ele>43</ele>
        <time>2018-06-27T09:30:23Z</time>
      </trkpt>
      <trkpt lat="43.22979" lon="6.52398">
        <ele>42.6</ele>
        <time>2018-06-27T09:30:34Z</time>
      </trkpt>
      <trkpt lat="43.22985" lon="6.52409">
        <ele>42.7</ele>
        <time>2018-06-27T09:30:43Z</time>
      </trkpt>
      <trkpt lat="43.22991" lon="6.52419">
        <ele>42.6</ele>
        <time>2018-06-27T09:30:49Z</time>
      </trkpt>
      <trkpt lat="43.22997" lon="6.5243">
        <ele>42.4</ele>
        <time>2018-06-27T09:30:56Z</time>
      </trkpt>
      <trkpt lat="43.23005" lon="6.52438">
        <ele>42.6</ele>
        <time>2018-06-27T09:31:03Z</time>
      </trkpt>
      <trkpt lat="43.23013" lon="6.52445">
        <ele>42.3</ele>
        <time>2018-06-27T09:31:11Z</time>
      </trkpt>
      <trkpt lat="43.23021" lon="6.52451">
        <ele>42.4</ele>
        <time>2018-06-27T09:31:20Z</time>
      </trkpt>
      <trkpt lat="43.2303" lon="6.52457">
        <ele>42.2</ele>
        <time>2018-06-27T09:31:29Z</time>
      </trkpt>
      <trkpt lat="43.23038" lon="6.52465">
        <ele>42.4</ele>
        <time>2018-06-27T09:31:38Z</time>
      </trkpt>
      <trkpt lat="43.23044" lon="6.52476">
        <ele>42.2</ele>
        <time>2018-06-27T09:31:48Z</time>
      </trkpt>
      <trkpt lat="43.23049" lon="6.52486">
        <ele>42.1</ele>
        <time>2018-06-27T09:31:56Z</time>
      </trkpt>
      <trkpt lat="43.23056" lon="6.52496">
        <ele>41.9</ele>
        <time>2018-06-27T09:32:05Z</time>
      </trkpt>
      <trkpt lat="43.23062" lon="6.52506">
        <ele>42</ele>
        <time>2018-06-27T09:32:19Z</time>
      </trkpt>
      <trkpt lat="43.23069" lon="6.52514">
        <ele>42.1</ele>
        <time>2018-06-27T09:32:29Z</time>
      </trkpt>
      <trkpt lat="43.23074" lon="6.52525">
        <ele>42.2</ele>
        <time>2018-06-27T09:32:36Z</time>
      </trkpt>
      <trkpt lat="43.23081" lon="6.52535">
        <ele>42.3</ele>
        <time>2018-06-27T09:32:43Z</time>
      </trkpt>
      <trkpt lat="43.23085" lon="6.52546">
        <ele>42.5</ele>
        <time>2018-06-27T09:32:54Z</time>
      </trkpt>
      <trkpt lat="43.23092" lon="6.52555">
        <ele>42.8</ele>
        <time>2018-06-27T09:33:02Z</time>
      </trkpt>
      <trkpt lat="43.231" lon="6.52561">
        <ele>42.8</ele>
        <time>2018-06-27T09:33:09Z</time>
      </trkpt>
      <trkpt lat="43.23107" lon="6.52568">
        <ele>42.8</ele>
        <time>2018-06-27T09:33:16Z</time>
      </trkpt>
      <trkpt lat="43.23115" lon="6.52574">
        <ele>42.6</ele>
        <time>2018-06-27T09:33:23Z</time>
      </trkpt>
      <trkpt lat="43.23124" lon="6.52578">
        <ele>42.4</ele>
        <time>2018-06-27T09:33:31Z</time>
      </trkpt>
      <trkpt lat="43.23134" lon="6.52577">
        <ele>42</ele>
        <time>2018-06-27T09:33:41Z</time>
      </trkpt>
      <trkpt lat="43.23143" lon="6.52579">
        <ele>42.6</ele>
        <time>2018-06-27T09:33:57Z</time>
      </trkpt>
      <trkpt lat="43.23153" lon="6.52575">
        <ele>42.7</ele>
        <time>2018-06-27T09:34:05Z</time>
      </trkpt>
      <trkpt lat="43.23163" lon="6.52571">
        <ele>42.6</ele>
        <time>2018-06-27T09:34:11Z</time>
      </trkpt>
      <trkpt lat="43.23173" lon="6.52566">
        <ele>42.7</ele>
        <time>2018-06-27T09:34:17Z</time>
      </trkpt>
      <trkpt lat="43.23182" lon="6.52569">
        <ele>42.4</ele>
        <time>2018-06-27T09:34:26Z</time>
      </trkpt>
      <trkpt lat="43.23188" lon="6.52579">
        <ele>42.3</ele>
        <time>2018-06-27T09:34:34Z</time>
      </trkpt>
      <trkpt lat="43.23195" lon="6.52589">
        <ele>42.5</ele>
        <time>2018-06-27T09:34:41Z</time>
      </trkpt>
      <trkpt lat="43.23202" lon="6.52598">
        <ele>42.4</ele>
        <time>2018-06-27T09:34:49Z</time>
      </trkpt>
      <trkpt lat="43.2321" lon="6.52606">
        <ele>42.4</ele>
        <time>2018-06-27T09:34:57Z</time>
      </trkpt>
      <trkpt lat="43.23217" lon="6.52616">
        <ele>42.5</ele>
        <time>2018-06-27T09:35:04Z</time>
      </trkpt>
      <trkpt lat="43.23224" lon="6.52625">
        <ele>42.6</ele>
        <time>2018-06-27T09:35:11Z</time>
      </trkpt>
      <trkpt lat="43.23233" lon="6.52632">
        <ele>42.2</ele>
        <time>2018-06-27T09:35:19Z</time>
      </trkpt>
      <trkpt lat="43.2324" lon="6.5264">
        <ele>42.1</ele>
        <time>2018-06-27T09:35:27Z</time>
      </trkpt>
      <trkpt lat="43.23247" lon="6.52648">
        <ele>42.5</ele>
        <time>2018-06-27T09:35:34Z</time>
      </trkpt>
      <trkpt lat="43.23253" lon="6.52657">
        <ele>42.5</ele>
        <time>2018-06-27T09:35:41Z</time>
      </trkpt>
      <trkpt lat="43.2326" lon="6.52666">
        <ele>42.2</ele>
        <time>2018-06-27T09:35:48Z</time>
      </trkpt>
      <trkpt lat="43.23267" lon="6.52676">
        <ele>42.1</ele>
        <time>2018-06-27T09:35:56Z</time>
      </trkpt>
      <trkpt lat="43.23274" lon="6.52685">
        <ele>42.1</ele>
        <time>2018-06-27T09:36:04Z</time>
      </trkpt>
      <trkpt lat="43.23282" lon="6.52693">
        <ele>42.4</ele>
        <time>2018-06-27T09:36:12Z</time>
      </trkpt>
      <trkpt lat="43.23289" lon="6.52702">
        <ele>42.6</ele>
        <time>2018-06-27T09:36:20Z</time>
      </trkpt>
      <trkpt lat="43.23297" lon="6.5271">
        <ele>42.7</ele>
        <time>2018-06-27T09:36:28Z</time>
      </trkpt>
      <trkpt lat="43.23303" lon="6.5272">
        <ele>42.7</ele>
        <time>2018-06-27T09:36:36Z</time>
      </trkpt>
      <trkpt lat="43.2331" lon="6.52729">
        <ele>42.3</ele>
        <time>2018-06-27T09:36:44Z</time>
      </trkpt>
      <trkpt lat="43.23316" lon="6.52739">
        <ele>42.2</ele>
        <time>2018-06-27T09:36:52Z</time>
      </trkpt>
      <trkpt lat="43.23323" lon="6.52747">
        <ele>42.2</ele>
        <time>2018-06-27T09:37:03Z</time>
      </trkpt>
      <trkpt lat="43.2333" lon="6.52757">
        <ele>42</ele>
        <time>2018-06-27T09:37:12Z</time>
      </trkpt>
      <trkpt lat="43.23337" lon="6.52767">
        <ele>41.9</ele>
        <time>2018-06-27T09:37:21Z</time>
      </trkpt>
      <trkpt lat="43.23344" lon="6.52776">
        <ele>42</ele>
        <time>2018-06-27T09:37:30Z</time>
      </trkpt>
      <trkpt lat="43.2335" lon="6.52786">
        <ele>41.8</ele>
        <time>2018-06-27T09:37:39Z</time>
      </trkpt>
      <trkpt lat="43.23357" lon="6.52796">
        <ele>41.4</ele>
        <time>2018-06-27T09:37:48Z</time>
      </trkpt>
      <trkpt lat="43.23363" lon="6.52806">
        <ele>41.5</ele>
        <time>2018-06-27T09:37:56Z</time>
      </trkpt>
      <trkpt lat="43.2337" lon="6.52816">
        <ele>41.7</ele>
        <time>2018-06-27T09:38:04Z</time>
      </trkpt>
      <trkpt lat="43.23377" lon="6.52826">
        <ele>41.9</ele>
        <time>2018-06-27T09:38:12Z</time>
      </trkpt>
      <trkpt lat="43.23383" lon="6.52836">
        <ele>42</ele>
        <time>2018-06-27T09:38:20Z</time>
      </trkpt>
      <trkpt lat="43.23389" lon="6.52846">
        <ele>41.7</ele>
        <time>2018-06-27T09:38:28Z</time>
      </trkpt>
      <trkpt lat="43.23395" lon="6.52855">
        <ele>41.9</ele>
        <time>2018-06-27T09:38:35Z</time>
      </trkpt>
      <trkpt lat="43.23402" lon="6.52865">
        <ele>41.7</ele>
        <time>2018-06-27T09:38:43Z</time>
      </trkpt>
      <trkpt lat="43.23408" lon="6.52876">
        <ele>41.6</ele>
        <time>2018-06-27T09:38:52Z</time>
      </trkpt>
      <trkpt lat="43.23414" lon="6.52886">
        <ele>41.4</ele>
        <time>2018-06-27T09:39:01Z</time>
      </trkpt>
      <trkpt lat="43.23419" lon="6.52896">
        <ele>41.2</ele>
        <time>2018-06-27T09:39:10Z</time>
      </trkpt>
      <trkpt lat="43.23424" lon="6.52907">
        <ele>41.5</ele>
        <time>2018-06-27T09:39:19Z</time>
      </trkpt>
      <trkpt lat="43.23427" lon="6.52919">
        <ele>41.3</ele>
        <time>2018-06-27T09:39:30Z</time>
      </trkpt>
      <trkpt lat="43.23429" lon="6.52932">
        <ele>41.2</ele>
        <time>2018-06-27T09:39:40Z</time>
      </trkpt>
      <trkpt lat="43.23428" lon="6.52945">
        <ele>41.2</ele>
        <time>2018-06-27T09:39:49Z</time>
      </trkpt>
      <trkpt lat="43.23429" lon="6.52959">
        <ele>41.4</ele>
        <time>2018-06-27T09:39:56Z</time>
      </trkpt>
      <trkpt lat="43.23429" lon="6.52973">
        <ele>41.4</ele>
        <time>2018-06-27T09:40:03Z</time>
      </trkpt>
      <trkpt lat="43.2343" lon="6.52985">
        <ele>41.8</ele>
        <time>2018-06-27T09:40:12Z</time>
      </trkpt>
      <trkpt lat="43.23433" lon="6.52999">
        <ele>42.1</ele>
        <time>2018-06-27T09:40:20Z</time>
      </trkpt>
      <trkpt lat="43.23434" lon="6.53012">
        <ele>42.1</ele>
        <time>2018-06-27T09:40:30Z</time>
      </trkpt>
      <trkpt lat="43.23435" lon="6.53025">
        <ele>42</ele>
        <time>2018-06-27T09:40:39Z</time>
      </trkpt>
      <trkpt lat="43.23437" lon="6.53038">
        <ele>41.9</ele>
        <time>2018-06-27T09:40:47Z</time>
      </trkpt>
      <trkpt lat="43.23437" lon="6.53051">
        <ele>41.7</ele>
        <time>2018-06-27T09:40:56Z</time>
      </trkpt>
      <trkpt lat="43.23437" lon="6.53064">
        <ele>41.6</ele>
        <time>2018-06-27T09:41:06Z</time>
      </trkpt>
      <trkpt lat="43.23437" lon="6.53076">
        <ele>41.6</ele>
        <time>2018-06-27T09:41:16Z</time>
      </trkpt>
      <trkpt lat="43.23443" lon="6.53087">
        <ele>41.5</ele>
        <time>2018-06-27T09:41:48Z</time>
      </trkpt>
      <trkpt lat="43.23451" lon="6.53095">
        <ele>41.6</ele>
        <time>2018-06-27T09:42:00Z</time>
      </trkpt>
      <trkpt lat="43.23458" lon="6.53105">
        <ele>41.5</ele>
        <time>2018-06-27T09:42:09Z</time>
      </trkpt>
      <trkpt lat="43.23465" lon="6.53114">
        <ele>41.6</ele>
        <time>2018-06-27T09:42:16Z</time>
      </trkpt>
      <trkpt lat="43.23472" lon="6.53123">
        <ele>41.6</ele>
        <time>2018-06-27T09:42:25Z</time>
      </trkpt>
      <trkpt lat="43.23472" lon="6.53136">
        <ele>41.5</ele>
        <time>2018-06-27T09:42:37Z</time>
      </trkpt>
      <trkpt lat="43.23475" lon="6.53148">
        <ele>41.5</ele>
        <time>2018-06-27T09:42:59Z</time>
      </trkpt>
      <trkpt lat="43.23478" lon="6.5316">
        <ele>42.3</ele>
        <time>2018-06-27T09:43:26Z</time>
      </trkpt>
      <trkpt lat="43.23485" lon="6.53166">
        <ele>42.1</ele>
        <time>2018-06-27T09:43:54Z</time>
      </trkpt>
      <trkpt lat="43.23494" lon="6.53172">
        <ele>41.9</ele>
        <time>2018-06-27T09:44:04Z</time>
      </trkpt>
      <trkpt lat="43.23502" lon="6.5318">
        <ele>41.8</ele>
        <time>2018-06-27T09:44:14Z</time>
      </trkpt>
      <trkpt lat="43.23509" lon="6.53187">
        <ele>41.8</ele>
        <time>2018-06-27T09:44:23Z</time>
      </trkpt>
      <trkpt lat="43.23519" lon="6.53189">
        <ele>41.8</ele>
        <time>2018-06-27T09:44:30Z</time>
      </trkpt>
      <trkpt lat="43.23528" lon="6.53193">
        <ele>41.5</ele>
        <time>2018-06-27T09:44:36Z</time>
      </trkpt>
      <trkpt lat="43.23536" lon="6.532">
        <ele>41.5</ele>
        <time>2018-06-27T09:44:43Z</time>
      </trkpt>
      <trkpt lat="43.23543" lon="6.53208">
        <ele>41.3</ele>
        <time>2018-06-27T09:44:50Z</time>
      </trkpt>
      <trkpt lat="43.23548" lon="6.5322">
        <ele>41.6</ele>
        <time>2018-06-27T09:44:58Z</time>
      </trkpt>
      <trkpt lat="43.23554" lon="6.5323">
        <ele>41.6</ele>
        <time>2018-06-27T09:45:05Z</time>
      </trkpt>
      <trkpt lat="43.23561" lon="6.5324">
        <ele>41.6</ele>
        <time>2018-06-27T09:45:14Z</time>
      </trkpt>
      <trkpt lat="43.23567" lon="6.53251">
        <ele>41.6</ele>
        <time>2018-06-27T09:45:23Z</time>
      </trkpt>
      <trkpt lat="43.23573" lon="6.53262">
        <ele>41.5</ele>
        <time>2018-06-27T09:45:31Z</time>
      </trkpt>
      <trkpt lat="43.23577" lon="6.53273">
        <ele>41.3</ele>
        <time>2018-06-27T09:45:38Z</time>
      </trkpt>
      <trkpt lat="43.2358" lon="6.53284">
        <ele>41.2</ele>
        <time>2018-06-27T09:45:46Z</time>
      </trkpt>
      <trkpt lat="43.23585" lon="6.53297">
        <ele>41.2</ele>
        <time>2018-06-27T09:45:55Z</time>
      </trkpt>
      <trkpt lat="43.23589" lon="6.53308">
        <ele>41.3</ele>
        <time>2018-06-27T09:46:03Z</time>
      </trkpt>
      <trkpt lat="43.23594" lon="6.53319">
        <ele>41.3</ele>
        <time>2018-06-27T09:46:11Z</time>
      </trkpt>
      <trkpt lat="43.23599" lon="6.5333">
        <ele>41.4</ele>
        <time>2018-06-27T09:46:19Z</time>
      </trkpt>
      <trkpt lat="43.23604" lon="6.5334">
        <ele>41.4</ele>
        <time>2018-06-27T09:46:27Z</time>
      </trkpt>
      <trkpt lat="43.2361" lon="6.53351">
        <ele>41.4</ele>
        <time>2018-06-27T09:46:35Z</time>
      </trkpt>
      <trkpt lat="43.23615" lon="6.53362">
        <ele>41.2</ele>
        <time>2018-06-27T09:46:44Z</time>
      </trkpt>
      <trkpt lat="43.2362" lon="6.53373">
        <ele>41.2</ele>
        <time>2018-06-27T09:46:53Z</time>
      </trkpt>
      <trkpt lat="43.23624" lon="6.53386">
        <ele>41.2</ele>
        <time>2018-06-27T09:47:01Z</time>
      </trkpt>
      <trkpt lat="43.23628" lon="6.53397">
        <ele>41.1</ele>
        <time>2018-06-27T09:47:09Z</time>
      </trkpt>
      <trkpt lat="43.23633" lon="6.53409">
        <ele>41</ele>
        <time>2018-06-27T09:47:23Z</time>
      </trkpt>
      <trkpt lat="43.23637" lon="6.5342">
        <ele>41</ele>
        <time>2018-06-27T09:47:32Z</time>
      </trkpt>
      <trkpt lat="43.23642" lon="6.53431">
        <ele>41</ele>
        <time>2018-06-27T09:47:41Z</time>
      </trkpt>
      <trkpt lat="43.23647" lon="6.53443">
        <ele>40.9</ele>
        <time>2018-06-27T09:47:51Z</time>
      </trkpt>
      <trkpt lat="43.23651" lon="6.53455">
        <ele>40.8</ele>
        <time>2018-06-27T09:48:03Z</time>
      </trkpt>
      <trkpt lat="43.23653" lon="6.53468">
        <ele>40.8</ele>
        <time>2018-06-27T09:48:14Z</time>
      </trkpt>
      <trkpt lat="43.23658" lon="6.5348">
        <ele>40.8</ele>
        <time>2018-06-27T09:48:27Z</time>
      </trkpt>
      <trkpt lat="43.23663" lon="6.5349">
        <ele>40.7</ele>
        <time>2018-06-27T09:48:35Z</time>
      </trkpt>
      <trkpt lat="43.23668" lon="6.53503">
        <ele>40.6</ele>
        <time>2018-06-27T09:48:45Z</time>
      </trkpt>
      <trkpt lat="43.2367" lon="6.53515">
        <ele>40.5</ele>
        <time>2018-06-27T09:48:53Z</time>
      </trkpt>
      <trkpt lat="43.23671" lon="6.53529">
        <ele>40.4</ele>
        <time>2018-06-27T09:49:01Z</time>
      </trkpt>
      <trkpt lat="43.23673" lon="6.53541">
        <ele>40.3</ele>
        <time>2018-06-27T09:49:07Z</time>
      </trkpt>
      <trkpt lat="43.23676" lon="6.53554">
        <ele>40.3</ele>
        <time>2018-06-27T09:49:16Z</time>
      </trkpt>
      <trkpt lat="43.23676" lon="6.53567">
        <ele>40.5</ele>
        <time>2018-06-27T09:49:26Z</time>
      </trkpt>
      <trkpt lat="43.2368" lon="6.53578">
        <ele>40.5</ele>
        <time>2018-06-27T09:49:35Z</time>
      </trkpt>
      <trkpt lat="43.23679" lon="6.53591">
        <ele>40.3</ele>
        <time>2018-06-27T09:49:44Z</time>
      </trkpt>
      <trkpt lat="43.23681" lon="6.53604">
        <ele>40.3</ele>
        <time>2018-06-27T09:49:53Z</time>
      </trkpt>
      <trkpt lat="43.23683" lon="6.53617">
        <ele>40.5</ele>
        <time>2018-06-27T09:50:01Z</time>
      </trkpt>
      <trkpt lat="43.23686" lon="6.53629">
        <ele>40.5</ele>
        <time>2018-06-27T09:50:08Z</time>
      </trkpt>
      <trkpt lat="43.2369" lon="6.5364">
        <ele>40.5</ele>
        <time>2018-06-27T09:50:15Z</time>
      </trkpt>
      <trkpt lat="43.23694" lon="6.53652">
        <ele>40.2</ele>
        <time>2018-06-27T09:50:26Z</time>
      </trkpt>
      <trkpt lat="43.23696" lon="6.53664">
        <ele>40.2</ele>
        <time>2018-06-27T09:50:39Z</time>
      </trkpt>
      <trkpt lat="43.23698" lon="6.53676">
        <ele>40.5</ele>
        <time>2018-06-27T09:50:54Z</time>
      </trkpt>
      <trkpt lat="43.23699" lon="6.53689">
        <ele>40.4</ele>
        <time>2018-06-27T09:51:02Z</time>
      </trkpt>
      <trkpt lat="43.23701" lon="6.53702">
        <ele>40.5</ele>
        <time>2018-06-27T09:51:11Z</time>
      </trkpt>
      <trkpt lat="43.23704" lon="6.53715">
        <ele>40.5</ele>
        <time>2018-06-27T09:51:19Z</time>
      </trkpt>
      <trkpt lat="43.23708" lon="6.53727">
        <ele>40.5</ele>
        <time>2018-06-27T09:51:27Z</time>
      </trkpt>
      <trkpt lat="43.23712" lon="6.5374">
        <ele>40.6</ele>
        <time>2018-06-27T09:51:35Z</time>
      </trkpt>
      <trkpt lat="43.23717" lon="6.53752">
        <ele>40.6</ele>
        <time>2018-06-27T09:51:42Z</time>
      </trkpt>
      <trkpt lat="43.23721" lon="6.53763">
        <ele>40.4</ele>
        <time>2018-06-27T09:51:49Z</time>
      </trkpt>
      <trkpt lat="43.23725" lon="6.53775">
        <ele>40.3</ele>
        <time>2018-06-27T09:51:56Z</time>
      </trkpt>
      <trkpt lat="43.23729" lon="6.53786">
        <ele>40.3</ele>
        <time>2018-06-27T09:52:05Z</time>
      </trkpt>
      <trkpt lat="43.23733" lon="6.53799">
        <ele>40.4</ele>
        <time>2018-06-27T09:52:15Z</time>
      </trkpt>
      <trkpt lat="43.23738" lon="6.53811">
        <ele>40.4</ele>
        <time>2018-06-27T09:52:24Z</time>
      </trkpt>
      <trkpt lat="43.23742" lon="6.53823">
        <ele>40.5</ele>
        <time>2018-06-27T09:52:35Z</time>
      </trkpt>
      <trkpt lat="43.23746" lon="6.53835">
        <ele>40.6</ele>
        <time>2018-06-27T09:52:45Z</time>
      </trkpt>
      <trkpt lat="43.2375" lon="6.53846">
        <ele>40.6</ele>
        <time>2018-06-27T09:52:53Z</time>
      </trkpt>
      <trkpt lat="43.23754" lon="6.53857">
        <ele>40.5</ele>
        <time>2018-06-27T09:53:03Z</time>
      </trkpt>
      <trkpt lat="43.23758" lon="6.5387">
        <ele>40.5</ele>
        <time>2018-06-27T09:53:12Z</time>
      </trkpt>
      <trkpt lat="43.23763" lon="6.53881">
        <ele>40.5</ele>
        <time>2018-06-27T09:53:22Z</time>
      </trkpt>
      <trkpt lat="43.23769" lon="6.53893">
        <ele>40.4</ele>
        <time>2018-06-27T09:53:31Z</time>
      </trkpt>
      <trkpt lat="43.23774" lon="6.53904">
        <ele>40.4</ele>
        <time>2018-06-27T09:53:39Z</time>
      </trkpt>
      <trkpt lat="43.2378" lon="6.53915">
        <ele>40.6</ele>
        <time>2018-06-27T09:53:46Z</time>
      </trkpt>
      <trkpt lat="43.23784" lon="6.53926">
        <ele>40.5</ele>
        <time>2018-06-27T09:53:54Z</time>
      </trkpt>
      <trkpt lat="43.23789" lon="6.53936">
        <ele>40.4</ele>
        <time>2018-06-27T09:54:03Z</time>
      </trkpt>
      <trkpt lat="43.23795" lon="6.53946">
        <ele>40.2</ele>
        <time>2018-06-27T09:54:12Z</time>
      </trkpt>
      <trkpt lat="43.23799" lon="6.53957">
        <ele>40</ele>
        <time>2018-06-27T09:54:20Z</time>
      </trkpt>
      <trkpt lat="43.23805" lon="6.53966">
        <ele>39.6</ele>
        <time>2018-06-27T09:54:27Z</time>
      </trkpt>
      <trkpt lat="43.23812" lon="6.53977">
        <ele>39.4</ele>
        <time>2018-06-27T09:54:35Z</time>
      </trkpt>
      <trkpt lat="43.23816" lon="6.53988">
        <ele>39.2</ele>
        <time>2018-06-27T09:54:43Z</time>
      </trkpt>
      <trkpt lat="43.23822" lon="6.53998">
        <ele>39.6</ele>
        <time>2018-06-27T09:54:52Z</time>
      </trkpt>
      <trkpt lat="43.23828" lon="6.54009">
        <ele>39.6</ele>
        <time>2018-06-27T09:54:59Z</time>
      </trkpt>
      <trkpt lat="43.23837" lon="6.54016">
        <ele>39.8</ele>
        <time>2018-06-27T09:55:08Z</time>
      </trkpt>
      <trkpt lat="43.23846" lon="6.54016">
        <ele>39.9</ele>
        <time>2018-06-27T09:55:15Z</time>
      </trkpt>
      <trkpt lat="43.23855" lon="6.54009">
        <ele>39.8</ele>
        <time>2018-06-27T09:55:25Z</time>
      </trkpt>
      <trkpt lat="43.23862" lon="6.54002">
        <ele>39.5</ele>
        <time>2018-06-27T09:55:35Z</time>
      </trkpt>
      <trkpt lat="43.23871" lon="6.53996">
        <ele>39.4</ele>
        <time>2018-06-27T09:55:43Z</time>
      </trkpt>
      <trkpt lat="43.2388" lon="6.53991">
        <ele>39.5</ele>
        <time>2018-06-27T09:55:50Z</time>
      </trkpt>
      <trkpt lat="43.23887" lon="6.53981">
        <ele>39.6</ele>
        <time>2018-06-27T09:55:57Z</time>
      </trkpt>
      <trkpt lat="43.23892" lon="6.5397">
        <ele>39.5</ele>
        <time>2018-06-27T09:56:04Z</time>
      </trkpt>
      <trkpt lat="43.23898" lon="6.53959">
        <ele>39.3</ele>
        <time>2018-06-27T09:56:12Z</time>
      </trkpt>
      <trkpt lat="43.23904" lon="6.5395">
        <ele>39.4</ele>
        <time>2018-06-27T09:56:20Z</time>
      </trkpt>
      <trkpt lat="43.2391" lon="6.53941">
        <ele>39.7</ele>
        <time>2018-06-27T09:56:27Z</time>
      </trkpt>
      <trkpt lat="43.23916" lon="6.53932">
        <ele>39.8</ele>
        <time>2018-06-27T09:56:37Z</time>
      </trkpt>
      <trkpt lat="43.23925" lon="6.53923">
        <ele>39.6</ele>
        <time>2018-06-27T09:56:46Z</time>
      </trkpt>
      <trkpt lat="43.23933" lon="6.53916">
        <ele>39.5</ele>
        <time>2018-06-27T09:56:54Z</time>
      </trkpt>
      <trkpt lat="43.23939" lon="6.53906">
        <ele>39.4</ele>
        <time>2018-06-27T09:57:06Z</time>
      </trkpt>
      <trkpt lat="43.23947" lon="6.539">
        <ele>39.5</ele>
        <time>2018-06-27T09:57:15Z</time>
      </trkpt>
      <trkpt lat="43.23955" lon="6.5389">
        <ele>39.3</ele>
        <time>2018-06-27T09:57:25Z</time>
      </trkpt>
      <trkpt lat="43.23962" lon="6.53881">
        <ele>39.4</ele>
        <time>2018-06-27T09:57:32Z</time>
      </trkpt>
      <trkpt lat="43.23968" lon="6.53871">
        <ele>39.6</ele>
        <time>2018-06-27T09:57:45Z</time>
      </trkpt>
      <trkpt lat="43.23976" lon="6.53863">
        <ele>39.2</ele>
        <time>2018-06-27T09:57:53Z</time>
      </trkpt>
      <trkpt lat="43.23983" lon="6.53854">
        <ele>39</ele>
        <time>2018-06-27T09:58:03Z</time>
      </trkpt>
      <trkpt lat="43.23992" lon="6.53848">
        <ele>39.2</ele>
        <time>2018-06-27T09:58:13Z</time>
      </trkpt>
      <trkpt lat="43.24" lon="6.53842">
        <ele>39.2</ele>
        <time>2018-06-27T09:58:22Z</time>
      </trkpt>
      <trkpt lat="43.2401" lon="6.53841">
        <ele>39.2</ele>
        <time>2018-06-27T09:58:30Z</time>
      </trkpt>
      <trkpt lat="43.24019" lon="6.53843">
        <ele>39.1</ele>
        <time>2018-06-27T09:58:46Z</time>
      </trkpt>
      <trkpt lat="43.24029" lon="6.53845">
        <ele>39.3</ele>
        <time>2018-06-27T09:58:53Z</time>
      </trkpt>
      <trkpt lat="43.24038" lon="6.53847">
        <ele>39.4</ele>
        <time>2018-06-27T09:58:59Z</time>
      </trkpt>
      <trkpt lat="43.24048" lon="6.53853">
        <ele>39.2</ele>
        <time>2018-06-27T09:59:09Z</time>
      </trkpt>
      <trkpt lat="43.24057" lon="6.53857">
        <ele>39.3</ele>
        <time>2018-06-27T09:59:18Z</time>
      </trkpt>
      <trkpt lat="43.24066" lon="6.53861">
        <ele>39.3</ele>
        <time>2018-06-27T09:59:27Z</time>
      </trkpt>
      <trkpt lat="43.24077" lon="6.53863">
        <ele>39.6</ele>
        <time>2018-06-27T09:59:37Z</time>
      </trkpt>
      <trkpt lat="43.24086" lon="6.53866">
        <ele>39.9</ele>
        <time>2018-06-27T09:59:46Z</time>
      </trkpt>
      <trkpt lat="43.24095" lon="6.53864">
        <ele>39.9</ele>
        <time>2018-06-27T09:59:54Z</time>
      </trkpt>
      <trkpt lat="43.24103" lon="6.53858">
        <ele>39.8</ele>
        <time>2018-06-27T10:00:02Z</time>
      </trkpt>
      <trkpt lat="43.24112" lon="6.53852">
        <ele>39.4</ele>
        <time>2018-06-27T10:00:14Z</time>
      </trkpt>
      <trkpt lat="43.24121" lon="6.53847">
        <ele>39.8</ele>
        <time>2018-06-27T10:00:24Z</time>
      </trkpt>
      <trkpt lat="43.24129" lon="6.53839">
        <ele>39.8</ele>
        <time>2018-06-27T10:00:31Z</time>
      </trkpt>
      <trkpt lat="43.24136" lon="6.5383">
        <ele>39.8</ele>
        <time>2018-06-27T10:00:36Z</time>
      </trkpt>
      <trkpt lat="43.24143" lon="6.5382">
        <ele>39.4</ele>
        <time>2018-06-27T10:00:47Z</time>
      </trkpt>
      <trkpt lat="43.24153" lon="6.53816">
        <ele>39.3</ele>
        <time>2018-06-27T10:00:53Z</time>
      </trkpt>
      <trkpt lat="43.24162" lon="6.53811">
        <ele>39.4</ele>
        <time>2018-06-27T10:00:59Z</time>
      </trkpt>
      <trkpt lat="43.24171" lon="6.53806">
        <ele>39.6</ele>
        <time>2018-06-27T10:01:04Z</time>
      </trkpt>
      <trkpt lat="43.2418" lon="6.53803">
        <ele>39.3</ele>
        <time>2018-06-27T10:01:10Z</time>
      </trkpt>
      <trkpt lat="43.24188" lon="6.53798">
        <ele>39.5</ele>
        <time>2018-06-27T10:01:16Z</time>
      </trkpt>
      <trkpt lat="43.24197" lon="6.53794">
        <ele>39.2</ele>
        <time>2018-06-27T10:01:24Z</time>
      </trkpt>
      <trkpt lat="43.24206" lon="6.53791">
        <ele>39.3</ele>
        <time>2018-06-27T10:01:31Z</time>
      </trkpt>
      <trkpt lat="43.24215" lon="6.53789">
        <ele>39.9</ele>
        <time>2018-06-27T10:01:40Z</time>
      </trkpt>
      <trkpt lat="43.24224" lon="6.53786">
        <ele>39.7</ele>
        <time>2018-06-27T10:01:49Z</time>
      </trkpt>
      <trkpt lat="43.24234" lon="6.53783">
        <ele>39.8</ele>
        <time>2018-06-27T10:01:57Z</time>
      </trkpt>
      <trkpt lat="43.24243" lon="6.53782">
        <ele>39.8</ele>
        <time>2018-06-27T10:02:06Z</time>
      </trkpt>
      <trkpt lat="43.24252" lon="6.53781">
        <ele>40.2</ele>
        <time>2018-06-27T10:02:14Z</time>
      </trkpt>
      <trkpt lat="43.24262" lon="6.53784">
        <ele>39.8</ele>
        <time>2018-06-27T10:02:28Z</time>
      </trkpt>
      <trkpt lat="43.2427" lon="6.5379">
        <ele>39.8</ele>
        <time>2018-06-27T10:02:37Z</time>
      </trkpt>
      <trkpt lat="43.24278" lon="6.53795">
        <ele>39.9</ele>
        <time>2018-06-27T10:02:46Z</time>
      </trkpt>
      <trkpt lat="43.24288" lon="6.53797">
        <ele>39.9</ele>
        <time>2018-06-27T10:02:56Z</time>
      </trkpt>
      <trkpt lat="43.24297" lon="6.53795">
        <ele>39.8</ele>
        <time>2018-06-27T10:03:01Z</time>
      </trkpt>
      <trkpt lat="43.24307" lon="6.53793">
        <ele>39.8</ele>
        <time>2018-06-27T10:03:07Z</time>
      </trkpt>
      <trkpt lat="43.24317" lon="6.53789">
        <ele>40.2</ele>
        <time>2018-06-27T10:03:14Z</time>
      </trkpt>
      <trkpt lat="43.24325" lon="6.53783">
        <ele>40.7</ele>
        <time>2018-06-27T10:03:30Z</time>
      </trkpt>
      <trkpt lat="43.24332" lon="6.53775">
        <ele>40.5</ele>
        <time>2018-06-27T10:03:46Z</time>
      </trkpt>
      <trkpt lat="43.2434" lon="6.53768">
        <ele>40.5</ele>
        <time>2018-06-27T10:03:53Z</time>
      </trkpt>
      <trkpt lat="43.24348" lon="6.53761">
        <ele>40.6</ele>
        <time>2018-06-27T10:04:01Z</time>
      </trkpt>
      <trkpt lat="43.24355" lon="6.53752">
        <ele>40.4</ele>
        <time>2018-06-27T10:04:16Z</time>
      </trkpt>
      <trkpt lat="43.24362" lon="6.53743">
        <ele>40.2</ele>
        <time>2018-06-27T10:04:26Z</time>
      </trkpt>
      <trkpt lat="43.24371" lon="6.53739">
        <ele>40.2</ele>
        <time>2018-06-27T10:04:34Z</time>
      </trkpt>
      <trkpt lat="43.24378" lon="6.53731">
        <ele>40.1</ele>
        <time>2018-06-27T10:04:42Z</time>
      </trkpt>
      <trkpt lat="43.24386" lon="6.53723">
        <ele>40</ele>
        <time>2018-06-27T10:04:48Z</time>
      </trkpt>
      <trkpt lat="43.24395" lon="6.53715">
        <ele>40.2</ele>
        <time>2018-06-27T10:04:56Z</time>
      </trkpt>
      <trkpt lat="43.24402" lon="6.53707">
        <ele>40.2</ele>
        <time>2018-06-27T10:05:05Z</time>
      </trkpt>
      <trkpt lat="43.2441" lon="6.53699">
        <ele>40</ele>
        <time>2018-06-27T10:05:13Z</time>
      </trkpt>
      <trkpt lat="43.24418" lon="6.53691">
        <ele>40</ele>
        <time>2018-06-27T10:05:23Z</time>
      </trkpt>
      <trkpt lat="43.24425" lon="6.53683">
        <ele>40.3</ele>
        <time>2018-06-27T10:05:32Z</time>
      </trkpt>
      <trkpt lat="43.24433" lon="6.53675">
        <ele>40.4</ele>
        <time>2018-06-27T10:05:43Z</time>
      </trkpt>
      <trkpt lat="43.24438" lon="6.53663">
        <ele>40.5</ele>
        <time>2018-06-27T10:05:58Z</time>
      </trkpt>
      <trkpt lat="43.24442" lon="6.53652">
        <ele>40.7</ele>
        <time>2018-06-27T10:06:05Z</time>
      </trkpt>
      <trkpt lat="43.24448" lon="6.53642">
        <ele>40.7</ele>
        <time>2018-06-27T10:06:12Z</time>
      </trkpt>
      <trkpt lat="43.24451" lon="6.5363">
        <ele>40.5</ele>
        <time>2018-06-27T10:06:20Z</time>
      </trkpt>
      <trkpt lat="43.24454" lon="6.53618">
        <ele>40.6</ele>
        <time>2018-06-27T10:06:27Z</time>
      </trkpt>
      <trkpt lat="43.24458" lon="6.53606">
        <ele>40.7</ele>
        <time>2018-06-27T10:06:35Z</time>
      </trkpt>
      <trkpt lat="43.24462" lon="6.53595">
        <ele>40.7</ele>
        <time>2018-06-27T10:06:42Z</time>
      </trkpt>
      <trkpt lat="43.24466" lon="6.53582">
        <ele>40.9</ele>
        <time>2018-06-27T10:06:50Z</time>
      </trkpt>
      <trkpt lat="43.24471" lon="6.53571">
        <ele>41</ele>
        <time>2018-06-27T10:06:58Z</time>
      </trkpt>
      <trkpt lat="43.24476" lon="6.53558">
        <ele>41</ele>
        <time>2018-06-27T10:07:06Z</time>
      </trkpt>
      <trkpt lat="43.24481" lon="6.53547">
        <ele>41.4</ele>
        <time>2018-06-27T10:07:14Z</time>
      </trkpt>
      <trkpt lat="43.24486" lon="6.53535">
        <ele>41.5</ele>
        <time>2018-06-27T10:07:22Z</time>
      </trkpt>
      <trkpt lat="43.24491" lon="6.53524">
        <ele>41.4</ele>
        <time>2018-06-27T10:07:30Z</time>
      </trkpt>
      <trkpt lat="43.24497" lon="6.53515">
        <ele>41.5</ele>
        <time>2018-06-27T10:07:40Z</time>
      </trkpt>
      <trkpt lat="43.24503" lon="6.53504">
        <ele>41.8</ele>
        <time>2018-06-27T10:07:48Z</time>
      </trkpt>
      <trkpt lat="43.24508" lon="6.53493">
        <ele>41.9</ele>
        <time>2018-06-27T10:07:56Z</time>
      </trkpt>
      <trkpt lat="43.24514" lon="6.53483">
        <ele>42.3</ele>
        <time>2018-06-27T10:08:06Z</time>
      </trkpt>
      <trkpt lat="43.2452" lon="6.53473">
        <ele>42.6</ele>
        <time>2018-06-27T10:08:16Z</time>
      </trkpt>
      <trkpt lat="43.24527" lon="6.53463">
        <ele>43.3</ele>
        <time>2018-06-27T10:08:25Z</time>
      </trkpt>
      <trkpt lat="43.24536" lon="6.53459">
        <ele>44.2</ele>
        <time>2018-06-27T10:08:34Z</time>
      </trkpt>
      <trkpt lat="43.24545" lon="6.5346">
        <ele>44.9</ele>
        <time>2018-06-27T10:08:43Z</time>
      </trkpt>
      <trkpt lat="43.24555" lon="6.53457">
        <ele>45.3</ele>
        <time>2018-06-27T10:08:49Z</time>
      </trkpt>
      <trkpt lat="43.24558" lon="6.53445">
        <ele>45.3</ele>
        <time>2018-06-27T10:08:58Z</time>
      </trkpt>
      <trkpt lat="43.24555" lon="6.53432">
        <ele>45.6</ele>
        <time>2018-06-27T10:09:08Z</time>
      </trkpt>
      <trkpt lat="43.24551" lon="6.5342">
        <ele>45.8</ele>
        <time>2018-06-27T10:09:17Z</time>
      </trkpt>
      <trkpt lat="43.24549" lon="6.53408">
        <ele>46.2</ele>
        <time>2018-06-27T10:09:26Z</time>
      </trkpt>
      <trkpt lat="43.24548" lon="6.53395">
        <ele>46.7</ele>
        <time>2018-06-27T10:09:38Z</time>
      </trkpt>
      <trkpt lat="43.24551" lon="6.53383">
        <ele>46.8</ele>
        <time>2018-06-27T10:09:48Z</time>
      </trkpt>
      <trkpt lat="43.24555" lon="6.53371">
        <ele>47.1</ele>
        <time>2018-06-27T10:09:57Z</time>
      </trkpt>
      <trkpt lat="43.24558" lon="6.53359">
        <ele>47.3</ele>
        <time>2018-06-27T10:10:07Z</time>
      </trkpt>
      <trkpt lat="43.24564" lon="6.53349">
        <ele>48</ele>
        <time>2018-06-27T10:10:18Z</time>
      </trkpt>
      <trkpt lat="43.24574" lon="6.53346">
        <ele>48.3</ele>
        <time>2018-06-27T10:10:28Z</time>
      </trkpt>
      <trkpt lat="43.24583" lon="6.53349">
        <ele>48.9</ele>
        <time>2018-06-27T10:10:38Z</time>
      </trkpt>
      <trkpt lat="43.24592" lon="6.53353">
        <ele>48.8</ele>
        <time>2018-06-27T10:10:48Z</time>
      </trkpt>
      <trkpt lat="43.24601" lon="6.53358">
        <ele>48.9</ele>
        <time>2018-06-27T10:10:57Z</time>
      </trkpt>
      <trkpt lat="43.24611" lon="6.53358">
        <ele>48.8</ele>
        <time>2018-06-27T10:11:07Z</time>
      </trkpt>
      <trkpt lat="43.24618" lon="6.53368">
        <ele>49</ele>
        <time>2018-06-27T10:11:18Z</time>
      </trkpt>
      <trkpt lat="43.24627" lon="6.53372">
        <ele>49.3</ele>
        <time>2018-06-27T10:11:26Z</time>
      </trkpt>
      <trkpt lat="43.24637" lon="6.53376">
        <ele>49.2</ele>
        <time>2018-06-27T10:11:34Z</time>
      </trkpt>
      <trkpt lat="43.24646" lon="6.53381">
        <ele>49</ele>
        <time>2018-06-27T10:11:43Z</time>
      </trkpt>
      <trkpt lat="43.2465" lon="6.53393">
        <ele>49</ele>
        <time>2018-06-27T10:11:57Z</time>
      </trkpt>
      <trkpt lat="43.24656" lon="6.53403">
        <ele>48.9</ele>
        <time>2018-06-27T10:12:11Z</time>
      </trkpt>
      <trkpt lat="43.24663" lon="6.53411">
        <ele>48.7</ele>
        <time>2018-06-27T10:12:22Z</time>
      </trkpt>
      <trkpt lat="43.24669" lon="6.53422">
        <ele>48.1</ele>
        <time>2018-06-27T10:12:32Z</time>
      </trkpt>
      <trkpt lat="43.2467" lon="6.53435">
        <ele>47.7</ele>
        <time>2018-06-27T10:12:43Z</time>
      </trkpt>
      <trkpt lat="43.24678" lon="6.53442">
        <ele>46.7</ele>
        <time>2018-06-27T10:12:54Z</time>
      </trkpt>
      <trkpt lat="43.2468" lon="6.53455">
        <ele>45.9</ele>
        <time>2018-06-27T10:13:05Z</time>
      </trkpt>
      <trkpt lat="43.24677" lon="6.53467">
        <ele>45.2</ele>
        <time>2018-06-27T10:13:13Z</time>
      </trkpt>
      <trkpt lat="43.24668" lon="6.53475">
        <ele>44.7</ele>
        <time>2018-06-27T10:13:28Z</time>
      </trkpt>
      <trkpt lat="43.24663" lon="6.53486">
        <ele>45</ele>
        <time>2018-06-27T10:13:38Z</time>
      </trkpt>
      <trkpt lat="43.24663" lon="6.53498">
        <ele>44.7</ele>
        <time>2018-06-27T10:13:45Z</time>
      </trkpt>
      <trkpt lat="43.24665" lon="6.53512">
        <ele>44.8</ele>
        <time>2018-06-27T10:13:51Z</time>
      </trkpt>
      <trkpt lat="43.24666" lon="6.53525">
        <ele>44.8</ele>
        <time>2018-06-27T10:13:58Z</time>
      </trkpt>
      <trkpt lat="43.24667" lon="6.53537">
        <ele>44.4</ele>
        <time>2018-06-27T10:14:06Z</time>
      </trkpt>
      <trkpt lat="43.24668" lon="6.53551">
        <ele>44.2</ele>
        <time>2018-06-27T10:14:15Z</time>
      </trkpt>
      <trkpt lat="43.24672" lon="6.53563">
        <ele>43.8</ele>
        <time>2018-06-27T10:14:22Z</time>
      </trkpt>
      <trkpt lat="43.24677" lon="6.53574">
        <ele>43.8</ele>
        <time>2018-06-27T10:14:29Z</time>
      </trkpt>
      <trkpt lat="43.24682" lon="6.53584">
        <ele>43.8</ele>
        <time>2018-06-27T10:14:37Z</time>
      </trkpt>
      <trkpt lat="43.24688" lon="6.53595">
        <ele>43.5</ele>
        <time>2018-06-27T10:14:46Z</time>
      </trkpt>
      <trkpt lat="43.24694" lon="6.53606">
        <ele>43.3</ele>
        <time>2018-06-27T10:14:55Z</time>
      </trkpt>
      <trkpt lat="43.24701" lon="6.53615">
        <ele>43.7</ele>
        <time>2018-06-27T10:15:04Z</time>
      </trkpt>
      <trkpt lat="43.24709" lon="6.53622">
        <ele>43.4</ele>
        <time>2018-06-27T10:15:12Z</time>
      </trkpt>
      <trkpt lat="43.24717" lon="6.53628">
        <ele>43.2</ele>
        <time>2018-06-27T10:15:20Z</time>
      </trkpt>
      <trkpt lat="43.24723" lon="6.53638">
        <ele>43.1</ele>
        <time>2018-06-27T10:15:29Z</time>
      </trkpt>
      <trkpt lat="43.2473" lon="6.53647">
        <ele>43.4</ele>
        <time>2018-06-27T10:15:37Z</time>
      </trkpt>
      <trkpt lat="43.24738" lon="6.53657">
        <ele>43.4</ele>
        <time>2018-06-27T10:15:45Z</time>
      </trkpt>
      <trkpt lat="43.24743" lon="6.53667">
        <ele>43.6</ele>
        <time>2018-06-27T10:15:53Z</time>
      </trkpt>
      <trkpt lat="43.24749" lon="6.53677">
        <ele>43.6</ele>
        <time>2018-06-27T10:16:20Z</time>
      </trkpt>
      <trkpt lat="43.2475" lon="6.53678">
        <ele>43.6</ele>
        <time>2018-06-27T10:16:28Z</time>
      </trkpt>
    </trkseg>
  </trk>
</gpx>